| time (UTC) | temp F | wind direction | speed knots | gust knots | rain 1hr in | rain 24hr in | rain mn in | humidity % | barometer mb |
| 20260906120803 | 74 | 0 | 0.0 | 0.0 | 0.00 | 0.00 | 0.00 | 82 | 1012.9 |
| 20260906120603 | 74 | 0 | 0.0 | 0.0 | 0.00 | 0.00 | 0.00 | 83 | 1012.9 |
| 20260906120404 | 74 | 0 | 0.0 | 0.0 | 0.00 | 0.00 | 0.00 | 84 | 1012.9 |
| 20260906120204 | 74 | 66 | 0.0 | 1.7 | 0.00 | 0.00 | 0.00 | 83 | 1012.8 |
| 20260906120004 | 74 | 65 | 0.0 | 1.7 | 0.00 | 0.00 | 0.00 | 83 | 1012.8 |
| 20260906115803 | 74 | 65 | 0.0 | 1.7 | 0.00 | 0.00 | 0.00 | 83 | 1012.7 |
| 20260906115603 | 74 | 65 | 0.0 | 1.7 | 0.00 | 0.00 | 0.00 | 83 | 1012.8 |
| 20260906115403 | 74 | 65 | 0.0 | 1.7 | 0.00 | 0.00 | 0.00 | 83 | 1012.8 |
| 20260906115203 | 74 | 65 | 0.0 | 1.7 | 0.00 | 0.00 | 0.00 | 84 | 1012.8 |
| 20260906115004 | 74 | 0 | 0.0 | 0.0 | 0.00 | 0.00 | 0.00 | 84 | 1012.8 |
| 20260906114804 | 74 | 0 | 0.0 | 0.0 | 0.00 | 0.00 | 0.00 | 84 | 1012.8 |
| 20260906114603 | 74 | 0 | 0.0 | 0.0 | 0.00 | 0.00 | 0.00 | 84 | 1012.8 |
| 20260906114403 | 74 | 0 | 0.0 | 0.0 | 0.00 | 0.00 | 0.00 | 84 | 1012.8 |
| 20260906114203 | 74 | 0 | 0.0 | 0.0 | 0.00 | 0.00 | 0.00 | 84 | 1012.7 |
| 20260906114003 | 74 | 0 | 0.0 | 0.0 | 0.00 | 0.00 | 0.00 | 84 | 1012.7 |
| 20260906113804 | 74 | 0 | 0.0 | 0.0 | 0.00 | 0.00 | 0.00 | 84 | 1012.7 |
| 20260906113604 | 74 | 0 | 0.0 | 0.0 | 0.00 | 0.00 | 0.00 | 85 | 1012.7 |
| 20260906113404 | 74 | 0 | 0.0 | 0.0 | 0.00 | 0.00 | 0.00 | 84 | 1012.7 |
| 20260906113203 | 74 | 0 | 0.0 | 0.0 | 0.00 | 0.00 | 0.00 | 84 | 1012.7 |
| 20260906113003 | 74 | 0 | 0.0 | 0.0 | 0.00 | 0.00 | 0.00 | 84 | 1012.6 |
| 20260906112803 | 74 | 0 | 0.0 | 0.0 | 0.00 | 0.00 | 0.00 | 83 | 1012.2 |
| 20260906112603 | 74 | 0 | 0.0 | 0.0 | 0.00 | 0.00 | 0.00 | 84 | 1012.2 |
| 20260906112403 | 74 | 0 | 0.0 | 0.0 | 0.00 | 0.00 | 0.00 | 84 | 1012.2 |
| 20260906112204 | 74 | 0 | 0.0 | 0.0 | 0.00 | 0.00 | 0.00 | 84 | 1012.2 |
| 20260906112004 | 74 | 0 | 0.0 | 0.0 | 0.00 | 0.00 | 0.00 | 84 | 1012.2 |
| 20260906111803 | 74 | 0 | 0.0 | 0.0 | 0.00 | 0.00 | 0.00 | 84 | 1012.2 |
| 20260906111603 | 74 | 0 | 0.0 | 0.0 | 0.00 | 0.00 | 0.00 | 84 | 1012.2 |
| 20260906111403 | 74 | 0 | 0.0 | 0.0 | 0.00 | 0.00 | 0.00 | 84 | 1012.2 |
| 20260906111203 | 74 | 0 | 0.0 | 0.0 | 0.00 | 0.00 | 0.00 | 85 | 1012.2 |
| 20260906111003 | 74 | 0 | 0.0 | 0.0 | 0.00 | 0.00 | 0.00 | 85 | 1012.2 |
| 20260906110803 | 74 | 66 | 0.0 | 1.7 | 0.00 | 0.00 | 0.00 | 84 | 1012.2 |
| 20260906110603 | 74 | 66 | 0.0 | 1.7 | 0.00 | 0.00 | 0.00 | 85 | 1012.1 |
| 20260906110404 | 74 | 66 | 0.0 | 1.7 | 0.00 | 0.00 | 0.00 | 85 | 1012.1 |
| 20260906110204 | 74 | 63 | 0.0 | 1.7 | 0.00 | 0.00 | 0.00 | 84 | 1012.2 |
| 20260906110004 | 74 | 63 | 0.0 | 1.7 | 0.00 | 0.00 | 0.00 | 84 | 1012.1 |
| 20260906105803 | 74 | 53 | 0.0 | 2.6 | 0.00 | 0.00 | 0.00 | 85 | 1012.0 |
| 20260906105603 | 74 | 47 | 0.9 | 3.5 | 0.00 | 0.00 | 0.00 | 85 | 1012.0 |
| 20260906105403 | 74 | 46 | 0.9 | 3.5 | 0.00 | 0.00 | 0.00 | 85 | 1012.0 |
| 20260906105203 | 74 | 46 | 0.9 | 4.3 | 0.00 | 0.00 | 0.00 | 85 | 1012.0 |
| 20260906105004 | 74 | 46 | 1.7 | 4.3 | 0.00 | 0.00 | 0.00 | 85 | 1012.0 |
| 20260906104804 | 74 | 43 | 1.7 | 4.3 | 0.00 | 0.00 | 0.00 | 86 | 1012.0 |
| 20260906104603 | 74 | 46 | 1.7 | 4.3 | 0.00 | 0.00 | 0.00 | 86 | 1012.0 |
| 20260906104403 | 74 | 47 | 1.7 | 4.3 | 0.00 | 0.00 | 0.00 | 86 | 1012.0 |
| 20260906104203 | 74 | 48 | 1.7 | 4.3 | 0.00 | 0.00 | 0.00 | 86 | 1011.7 |
| 20260906104003 | 74 | 48 | 1.7 | 4.3 | 0.00 | 0.00 | 0.00 | 86 | 1011.7 |
| 20260906103803 | 74 | 51 | 1.7 | 4.3 | 0.00 | 0.00 | 0.00 | 87 | 1011.7 |
| 20260906103604 | 74 | 50 | 1.7 | 4.3 | 0.00 | 0.00 | 0.00 | 87 | 1011.7 |
| 20260906103404 | 74 | 50 | 1.7 | 4.3 | 0.00 | 0.00 | 0.00 | 87 | 1011.7 |
| 20260906103204 | 74 | 49 | 0.9 | 4.3 | 0.00 | 0.00 | 0.00 | 87 | 1011.7 |
| 20260906103003 | 74 | 51 | 0.9 | 4.3 | 0.00 | 0.00 | 0.00 | 87 | 1011.7 |
| 20260906102803 | 74 | 52 | 0.9 | 4.3 | 0.00 | 0.00 | 0.00 | 87 | 1012.0 |
| 20260906102603 | 74 | 49 | 0.9 | 6.1 | 0.00 | 0.00 | 0.00 | 87 | 1012.0 |
| 20260906102403 | 74 | 52 | 0.9 | 6.1 | 0.00 | 0.00 | 0.00 | 88 | 1012.0 |
| 20260906102203 | 74 | 51 | 0.9 | 6.1 | 0.00 | 0.00 | 0.00 | 88 | 1012.0 |
| 20260906102004 | 74 | 48 | 1.7 | 6.1 | 0.00 | 0.00 | 0.00 | 88 | 1012.0 |
| 20260906101804 | 74 | 48 | 1.7 | 6.1 | 0.00 | 0.00 | 0.00 | 88 | 1012.0 |
| 20260906101604 | 74 | 50 | 1.7 | 4.3 | 0.00 | 0.00 | 0.00 | 88 | 1012.0 |
| 20260906101403 | 74 | 41 | 1.7 | 4.3 | 0.00 | 0.00 | 0.00 | 88 | 1012.0 |
| 20260906101203 | 74 | 43 | 1.7 | 4.3 | 0.00 | 0.00 | 0.00 | 88 | 1011.8 |
| 20260906101003 | 74 | 42 | 1.7 | 5.2 | 0.00 | 0.00 | 0.00 | 88 | 1011.8 |
| 20260906100803 | 74 | 41 | 1.7 | 5.2 | 0.00 | 0.00 | 0.00 | 89 | 1011.8 |
| 20260906100603 | 73 | 41 | 1.7 | 5.2 | 0.00 | 0.00 | 0.00 | 89 | 1011.8 |
| 20260906100404 | 73 | 45 | 2.6 | 5.2 | 0.00 | 0.00 | 0.00 | 89 | 1011.8 |
| 20260906100204 | 73 | 45 | 2.6 | 5.2 | 0.00 | 0.00 | 0.00 | 89 | 1011.8 |
| 20260906100004 | 73 | 45 | 2.6 | 5.2 | 0.00 | 0.00 | 0.00 | 89 | 1011.8 |
| 20260906095803 | 73 | 45 | 2.6 | 4.3 | 0.00 | 0.00 | 0.00 | 89 | 1012.1 |
| 20260906095603 | 73 | 42 | 2.6 | 4.3 | 0.00 | 0.00 | 0.00 | 89 | 1012.1 |
| 20260906095403 | 73 | 40 | 2.6 | 4.3 | 0.00 | 0.00 | 0.00 | 89 | 1012.1 |
| 20260906095203 | 73 | 35 | 1.7 | 3.5 | 0.00 | 0.00 | 0.00 | 89 | 1012.1 |
| 20260906095004 | 73 | 34 | 1.7 | 4.3 | 0.00 | 0.00 | 0.00 | 89 | 1012.1 |
| 20260906094804 | 73 | 33 | 1.7 | 4.3 | 0.00 | 0.00 | 0.00 | 89 | 1012.1 |
| 20260906094604 | 73 | 32 | 1.7 | 4.3 | 0.00 | 0.00 | 0.00 | 89 | 1012.1 |
| 20260906094403 | 73 | 33 | 1.7 | 4.3 | 0.00 | 0.00 | 0.00 | 89 | 1012.1 |
| 20260906094203 | 73 | 34 | 1.7 | 4.3 | 0.00 | 0.00 | 0.00 | 89 | 1012.0 |
| 20260906094003 | 74 | 35 | 1.7 | 4.3 | 0.00 | 0.00 | 0.00 | 89 | 1012.0 |
| 20260906093803 | 74 | 38 | 1.7 | 3.5 | 0.00 | 0.00 | 0.00 | 89 | 1012.0 |
| 20260906093604 | 74 | 41 | 1.7 | 3.5 | 0.00 | 0.00 | 0.00 | 89 | 1012.0 |
| 20260906093404 | 74 | 41 | 1.7 | 3.5 | 0.00 | 0.00 | 0.00 | 88 | 1012.0 |
| 20260906093204 | 74 | 41 | 1.7 | 2.6 | 0.00 | 0.00 | 0.00 | 88 | 1012.0 |
| 20260906093003 | 74 | 41 | 1.7 | 2.6 | 0.00 | 0.00 | 0.00 | 88 | 1012.0 |
| 20260906092803 | 74 | 41 | 1.7 | 3.5 | 0.00 | 0.00 | 0.00 | 88 | 1012.2 |
| 20260906092603 | 74 | 41 | 1.7 | 3.5 | 0.00 | 0.00 | 0.00 | 88 | 1012.2 |
| 20260906092403 | 74 | 41 | 1.7 | 3.5 | 0.00 | 0.00 | 0.00 | 88 | 1012.2 |
| 20260906092203 | 74 | 41 | 1.7 | 3.5 | 0.00 | 0.00 | 0.00 | 88 | 1012.2 |
| 20260906092003 | 74 | 43 | 1.7 | 3.5 | 0.00 | 0.00 | 0.00 | 88 | 1012.2 |
| 20260906091804 | 74 | 44 | 1.7 | 4.3 | 0.00 | 0.00 | 0.00 | 88 | 1012.2 |
| 20260906091604 | 74 | 46 | 2.6 | 4.3 | 0.00 | 0.00 | 0.00 | 88 | 1012.2 |
| 20260906091404 | 74 | 48 | 2.6 | 4.3 | 0.00 | 0.00 | 0.00 | 88 | 1012.2 |
| 20260906091203 | 74 | 51 | 2.6 | 4.3 | 0.00 | 0.00 | 0.00 | 88 | 1012.3 |
| 20260906091003 | 74 | 54 | 2.6 | 4.3 | 0.00 | 0.00 | 0.00 | 88 | 1012.3 |
| 20260906090803 | 74 | 56 | 2.6 | 4.3 | 0.00 | 0.00 | 0.00 | 88 | 1012.3 |
| 20260906090603 | 74 | 58 | 1.7 | 4.3 | 0.00 | 0.00 | 0.00 | 88 | 1012.3 |
| 20260906090404 | 74 | 58 | 1.7 | 4.3 | 0.00 | 0.00 | 0.00 | 88 | 1012.3 |
| 20260906090204 | 74 | 56 | 1.7 | 4.3 | 0.00 | 0.00 | 0.00 | 88 | 1012.3 |
| 20260906090004 | 74 | 51 | 1.7 | 4.3 | 0.00 | 0.00 | 0.00 | 88 | 1012.3 |
| 20260906085803 | 74 | 44 | 1.7 | 4.3 | 0.00 | 0.00 | 0.00 | 87 | 1012.7 |
| 20260906085603 | 74 | 40 | 1.7 | 4.3 | 0.00 | 0.00 | 0.00 | 87 | 1012.7 |
| 20260906085403 | 74 | 40 | 2.6 | 4.3 | 0.00 | 0.00 | 0.00 | 87 | 1012.7 |
| 20260906085203 | 74 | 41 | 2.6 | 5.2 | 0.00 | 0.00 | 0.00 | 87 | 1012.7 |
| 20260906085003 | 74 | 41 | 2.6 | 5.2 | 0.00 | 0.00 | 0.00 | 87 | 1012.7 |
| 20260906084804 | 74 | 42 | 2.6 | 5.2 | 0.00 | 0.00 | 0.00 | 87 | 1012.7 |
| 20260906084604 | 74 | 42 | 2.6 | 5.2 | 0.00 | 0.00 | 0.00 | 87 | 1012.7 |
| 20260906084403 | 74 | 42 | 1.7 | 5.2 | 0.00 | 0.00 | 0.00 | 87 | 1012.7 |
| 20260906084203 | 74 | 42 | 1.7 | 4.3 | 0.00 | 0.00 | 0.00 | 87 | 1013.2 |
| 20260906084003 | 74 | 42 | 1.7 | 4.3 | 0.00 | 0.00 | 0.00 | 86 | 1013.2 |
| 20260906083803 | 74 | 44 | 1.7 | 4.3 | 0.00 | 0.00 | 0.00 | 86 | 1013.2 |
| 20260906083603 | 74 | 45 | 1.7 | 4.3 | 0.00 | 0.00 | 0.00 | 86 | 1013.2 |
| 20260906083403 | 74 | 46 | 1.7 | 4.3 | 0.00 | 0.00 | 0.00 | 86 | 1013.2 |
| 20260906083203 | 74 | 44 | 1.7 | 4.3 | 0.00 | 0.00 | 0.00 | 86 | 1013.2 |
| 20260906083004 | 74 | 46 | 1.7 | 4.3 | 0.00 | 0.00 | 0.00 | 86 | 1013.2 |
| 20260906082804 | 74 | 49 | 1.7 | 5.2 | 0.00 | 0.00 | 0.00 | 86 | 1013.3 |
| 20260906082604 | 74 | 51 | 1.7 | 5.2 | 0.00 | 0.00 | 0.00 | 86 | 1013.3 |
| 20260906082403 | 74 | 49 | 1.7 | 6.1 | 0.00 | 0.00 | 0.00 | 86 | 1013.3 |
| 20260906082203 | 74 | 52 | 2.6 | 7.8 | 0.00 | 0.00 | 0.00 | 86 | 1013.3 |
| 20260906082003 | 74 | 58 | 2.6 | 7.8 | 0.00 | 0.00 | 0.00 | 86 | 1013.3 |
| 20260906081803 | 74 | 70 | 2.6 | 7.8 | 0.00 | 0.00 | 0.00 | 86 | 1013.3 |
| 20260906081603 | 74 | 82 | 2.6 | 7.8 | 0.00 | 0.00 | 0.00 | 86 | 1013.3 |
| 20260906081404 | 74 | 117 | 1.7 | 7.8 | 0.00 | 0.00 | 0.00 | 86 | 1013.3 |
| 20260906081204 | 74 | 143 | 1.7 | 6.1 | 0.00 | 0.00 | 0.00 | 86 | 1013.1 |
| 20260906081003 | 74 | 132 | 0.9 | 7.0 | 0.00 | 0.00 | 0.00 | 86 | 1013.1 |
| 20260906080803 | 74 | 117 | 0.9 | 7.0 | 0.00 | 0.00 | 0.00 | 86 | 1013.1 |
| 20260906080603 | 74 | 81 | 0.9 | 7.0 | 0.00 | 0.00 | 0.00 | 86 | 1013.1 |
| 20260906080403 | 74 | 64 | 0.9 | 7.0 | 0.00 | 0.00 | 0.00 | 86 | 1013.1 |
| 20260906080203 | 74 | 70 | 1.7 | 7.0 | 0.00 | 0.00 | 0.00 | 86 | 1013.1 |
| 20260906080004 | 74 | 72 | 1.7 | 6.1 | 0.00 | 0.00 | 0.00 | 85 | 1013.1 |
| 20260906075804 | 74 | 68 | 2.6 | 7.0 | 0.00 | 0.00 | 0.00 | 85 | 1012.7 |
| 20260906075604 | 74 | 65 | 3.5 | 7.0 | 0.00 | 0.00 | 0.00 | 85 | 1012.7 |
| 20260906075403 | 74 | 61 | 4.3 | 7.0 | 0.00 | 0.00 | 0.00 | 85 | 1012.7 |
| 20260906075203 | 74 | 56 | 4.3 | 7.0 | 0.00 | 0.00 | 0.00 | 85 | 1012.7 |
| 20260906075003 | 74 | 54 | 4.3 | 7.0 | 0.00 | 0.00 | 0.00 | 85 | 1012.7 |
| 20260906074803 | 74 | 54 | 4.3 | 7.8 | 0.00 | 0.00 | 0.00 | 84 | 1012.7 |
| 20260906074603 | 74 | 53 | 3.5 | 7.8 | 0.00 | 0.00 | 0.00 | 84 | 1012.7 |
| 20260906074404 | 74 | 55 | 3.5 | 7.8 | 0.00 | 0.00 | 0.00 | 84 | 1012.7 |
| 20260906074204 | 74 | 55 | 4.3 | 7.8 | 0.00 | 0.00 | 0.00 | 83 | 1012.1 |
| 20260906074004 | 74 | 54 | 4.3 | 7.8 | 0.00 | 0.00 | 0.00 | 83 | 1012.1 |
| 20260906073803 | 75 | 54 | 4.3 | 7.8 | 0.00 | 0.00 | 0.00 | 83 | 1012.1 |
| 20260906073603 | 75 | 55 | 4.3 | 7.8 | 0.00 | 0.00 | 0.00 | 83 | 1012.1 |
| 20260906073403 | 74 | 54 | 4.3 | 7.8 | 0.00 | 0.00 | 0.00 | 83 | 1012.1 |
| 20260906073203 | 74 | 56 | 3.5 | 7.8 | 0.00 | 0.00 | 0.00 | 83 | 1012.1 |
| 20260906073004 | 74 | 58 | 3.5 | 7.0 | 0.00 | 0.00 | 0.00 | 83 | 1012.1 |
| 20260906072804 | 74 | 57 | 2.6 | 5.2 | 0.00 | 0.00 | 0.00 | 83 | 1012.1 |
| 20260906072604 | 74 | 55 | 2.6 | 5.2 | 0.00 | 0.00 | 0.00 | 83 | 1012.1 |
| 20260906072403 | 74 | 57 | 2.6 | 5.2 | 0.00 | 0.00 | 0.00 | 83 | 1012.1 |
| 20260906072203 | 74 | 54 | 2.6 | 5.2 | 0.00 | 0.00 | 0.00 | 82 | 1012.1 |
| 20260906072003 | 74 | 53 | 2.6 | 6.1 | 0.00 | 0.00 | 0.00 | 82 | 1012.0 |
| 20260906071803 | 75 | 51 | 2.6 | 6.1 | 0.00 | 0.00 | 0.00 | 81 | 1012.0 |
| 20260906071603 | 75 | 48 | 2.6 | 6.1 | 0.00 | 0.00 | 0.00 | 81 | 1012.1 |
| 20260906071404 | 75 | 45 | 2.6 | 6.1 | 0.00 | 0.00 | 0.00 | 81 | 1012.0 |
| 20260906071204 | 75 | 47 | 1.7 | 6.1 | 0.00 | 0.00 | 0.00 | 80 | 1012.1 |
| 20260906071004 | 75 | 47 | 1.7 | 6.1 | 0.00 | 0.00 | 0.00 | 79 | 1012.1 |
| 20260906070803 | 75 | 50 | 0.9 | 6.1 | 0.00 | 0.00 | 0.00 | 79 | 1012.1 |
| 20260906070603 | 75 | 50 | 0.9 | 3.5 | 0.00 | 0.00 | 0.00 | 79 | 1012.1 |
| 20260906070403 | 75 | 53 | 0.9 | 4.3 | 0.00 | 0.00 | 0.00 | 78 | 1012.2 |
| 20260906070203 | 76 | 51 | 0.9 | 4.3 | 0.00 | 0.00 | 0.00 | 78 | 1012.2 |
| 20260906070004 | 76 | 48 | 0.9 | 4.3 | 0.00 | 0.00 | 0.00 | 78 | 1012.2 |
| 20260906065804 | 76 | 48 | 1.7 | 5.2 | 0.00 | 0.00 | 0.00 | 78 | 1012.7 |
| 20260906065604 | 76 | 53 | 1.7 | 5.2 | 0.00 | 0.00 | 0.00 | 78 | 1012.7 |
| 20260906065403 | 76 | 55 | 1.7 | 5.2 | 0.00 | 0.00 | 0.00 | 77 | 1012.7 |
| 20260906065203 | 76 | 57 | 1.7 | 5.2 | 0.00 | 0.00 | 0.00 | 77 | 1012.7 |
| 20260906065003 | 76 | 57 | 1.7 | 5.2 | 0.00 | 0.00 | 0.00 | 77 | 1012.7 |
| 20260906064803 | 76 | 55 | 1.7 | 6.1 | 0.00 | 0.00 | 0.00 | 76 | 1012.7 |
| 20260906064604 | 76 | 53 | 2.6 | 6.1 | 0.00 | 0.00 | 0.00 | 76 | 1012.7 |
| 20260906064404 | 76 | 17 | 3.5 | 6.1 | 0.00 | 0.00 | 0.00 | 76 | 1012.7 |
| 20260906064204 | 76 | 2 | 4.3 | 7.0 | 0.00 | 0.00 | 0.00 | 76 | 1012.5 |
| 20260906064003 | 76 | 10 | 4.3 | 7.0 | 0.00 | 0.00 | 0.00 | 75 | 1012.5 |
| 20260906063803 | 76 | 354 | 3.5 | 7.0 | 0.00 | 0.00 | 0.00 | 75 | 1012.5 |
| 20260906063603 | 76 | 326 | 3.5 | 7.0 | 0.00 | 0.00 | 0.00 | 74 | 1012.4 |
| 20260906063403 | 76 | 16 | 1.7 | 7.0 | 0.00 | 0.00 | 0.00 | 74 | 1012.4 |
| 20260906063203 | 76 | 44 | 0.9 | 7.0 | 0.00 | 0.00 | 0.00 | 74 | 1012.4 |
| 20260906063004 | 76 | 71 | 0.0 | 1.7 | 0.00 | 0.00 | 0.00 | 74 | 1012.5 |
| 20260906062804 | 76 | 71 | 0.0 | 1.7 | 0.00 | 0.00 | 0.00 | 73 | 1012.6 |
| 20260906062604 | 76 | 70 | 0.9 | 1.7 | 0.00 | 0.00 | 0.00 | 73 | 1012.6 |
| 20260906062403 | 76 | 70 | 0.9 | 1.7 | 0.00 | 0.00 | 0.00 | 74 | 1012.6 |
| 20260906062203 | 76 | 70 | 0.9 | 1.7 | 0.00 | 0.00 | 0.00 | 74 | 1012.6 |
| 20260906062003 | 76 | 70 | 0.9 | 1.7 | 0.00 | 0.00 | 0.00 | 74 | 1012.6 |
| 20260906061803 | 76 | 71 | 0.9 | 1.7 | 0.00 | 0.00 | 0.00 | 74 | 1012.6 |
| 20260906061603 | 76 | 71 | 0.9 | 1.7 | 0.00 | 0.00 | 0.00 | 74 | 1012.6 |
| 20260906061403 | 76 | 71 | 0.9 | 1.7 | 0.00 | 0.00 | 0.00 | 74 | 1012.6 |
| 20260906061204 | 76 | 70 | 0.9 | 1.7 | 0.00 | 0.00 | 0.00 | 73 | 1012.6 |
| 20260906061004 | 76 | 70 | 0.9 | 1.7 | 0.00 | 0.00 | 0.00 | 74 | 1012.6 |
| 20260906060804 | 77 | 70 | 0.9 | 1.7 | 0.00 | 0.00 | 0.00 | 73 | 1012.6 |
| 20260906060603 | 77 | 70 | 0.9 | 1.7 | 0.00 | 0.00 | 0.00 | 73 | 1012.6 |
| 20260906060403 | 77 | 71 | 0.0 | 1.7 | 0.00 | 0.00 | 0.00 | 73 | 1012.6 |
| 20260906060203 | 77 | 71 | 0.0 | 1.7 | 0.00 | 0.00 | 0.00 | 72 | 1012.6 |
| 20260906060004 | 77 | 71 | 0.0 | 1.7 | 0.00 | 0.00 | 0.00 | 72 | 1012.6 |
| 20260906055804 | 77 | 71 | 0.0 | 0.9 | 0.00 | 0.00 | 0.00 | 72 | 1012.6 |
| 20260906055604 | 77 | 0 | 0.0 | 0.0 | 0.00 | 0.00 | 0.00 | 72 | 1012.6 |
| 20260906055403 | 77 | 0 | 0.0 | 0.0 | 0.00 | 0.00 | 0.00 | 72 | 1012.7 |
| 20260906055204 | 78 | 0 | 0.0 | 0.0 | 0.00 | 0.00 | 0.00 | 72 | 1012.6 |
| 20260906055003 | 78 | 0 | 0.0 | 0.0 | 0.00 | 0.00 | 0.00 | 71 | 1012.7 |
| 20260906054803 | 78 | 0 | 0.0 | 0.0 | 0.00 | 0.00 | 0.00 | 71 | 1012.7 |
| 20260906054603 | 78 | 0 | 0.0 | 0.0 | 0.00 | 0.00 | 0.00 | 71 | 1012.7 |
| 20260906054404 | 78 | 0 | 0.0 | 0.0 | 0.00 | 0.00 | 0.00 | 71 | 1012.7 |
| 20260906054204 | 78 | 0 | 0.0 | 0.0 | 0.00 | 0.00 | 0.00 | 71 | 1012.9 |
| 20260906054003 | 78 | 0 | 0.0 | 0.0 | 0.00 | 0.00 | 0.00 | 71 | 1012.9 |
| 20260906053803 | 78 | 0 | 0.0 | 0.0 | 0.00 | 0.00 | 0.00 | 71 | 1012.9 |
| 20260906053603 | 78 | 0 | 0.0 | 0.0 | 0.00 | 0.00 | 0.00 | 70 | 1012.8 |
| 20260906053403 | 78 | 71 | 0.0 | 1.7 | 0.00 | 0.00 | 0.00 | 70 | 1012.8 |
| 20260906053203 | 78 | 71 | 0.0 | 1.7 | 0.00 | 0.00 | 0.00 | 70 | 1012.8 |
| 20260906053003 | 78 | 70 | 0.0 | 1.7 | 0.00 | 0.00 | 0.00 | 70 | 1012.8 |
| 20260906052804 | 78 | 70 | 0.9 | 1.7 | 0.00 | 0.00 | 0.00 | 71 | 1012.7 |
| 20260906052604 | 77 | 71 | 0.9 | 2.6 | 0.00 | 0.00 | 0.00 | 71 | 1012.7 |
| 20260906052404 | 77 | 70 | 0.9 | 2.6 | 0.00 | 0.00 | 0.00 | 71 | 1012.7 |
| 20260906052203 | 77 | 70 | 0.9 | 3.5 | 0.00 | 0.00 | 0.00 | 71 | 1012.7 |
| 20260906052003 | 77 | 70 | 0.9 | 3.5 | 0.00 | 0.00 | 0.00 | 71 | 1012.7 |
| 20260906051803 | 77 | 71 | 0.9 | 3.5 | 0.00 | 0.00 | 0.00 | 72 | 1012.7 |
| 20260906051603 | 77 | 71 | 1.7 | 3.5 | 0.00 | 0.00 | 0.00 | 71 | 1012.7 |
| 20260906051404 | 77 | 70 | 1.7 | 3.5 | 0.00 | 0.00 | 0.00 | 72 | 1012.7 |
| 20260906051204 | 77 | 70 | 1.7 | 3.5 | 0.00 | 0.00 | 0.00 | 72 | 1012.5 |
| 20260906051004 | 77 | 71 | 1.7 | 3.5 | 0.00 | 0.00 | 0.00 | 71 | 1012.5 |
| 20260906050803 | 77 | 71 | 0.9 | 3.5 | 0.00 | 0.00 | 0.00 | 72 | 1012.5 |
| 20260906050603 | 78 | 71 | 0.9 | 3.5 | 0.00 | 0.00 | 0.00 | 72 | 1012.5 |
| 20260906050403 | 78 | 71 | 0.9 | 2.6 | 0.00 | 0.00 | 0.00 | 72 | 1012.5 |
| 20260906050203 | 78 | 72 | 0.0 | 2.6 | 0.00 | 0.00 | 0.00 | 72 | 1012.5 |
| 20260906050003 | 78 | 72 | 0.9 | 1.7 | 0.00 | 0.00 | 0.00 | 72 | 1012.5 |
| 20260906045804 | 78 | 72 | 0.9 | 1.7 | 0.00 | 0.00 | 0.00 | 72 | 1012.7 |
| 20260906045604 | 78 | 72 | 0.9 | 1.7 | 0.00 | 0.00 | 0.00 | 72 | 1012.7 |
| 20260906045404 | 78 | 72 | 0.9 | 1.7 | 0.00 | 0.00 | 0.00 | 72 | 1012.7 |
| 20260906045203 | 77 | 72 | 0.9 | 1.7 | 0.00 | 0.00 | 0.00 | 72 | 1012.7 |
| 20260906045003 | 77 | 72 | 0.9 | 1.7 | 0.00 | 0.00 | 0.00 | 72 | 1012.7 |
| 20260906044803 | 77 | 73 | 0.9 | 1.7 | 0.00 | 0.00 | 0.00 | 72 | 1012.7 |
| 20260906044603 | 77 | 73 | 0.0 | 1.7 | 0.00 | 0.00 | 0.00 | 73 | 1012.7 |
| 20260906044404 | 77 | 0 | 0.0 | 0.0 | 0.00 | 0.00 | 0.00 | 72 | 1012.7 |
| 20260906044204 | 77 | 0 | 0.0 | 0.0 | 0.00 | 0.00 | 0.00 | 73 | 1013.4 |
| 20260906044004 | 77 | 0 | 0.0 | 0.0 | 0.00 | 0.00 | 0.00 | 73 | 1013.4 |
| 20260906043803 | 77 | 0 | 0.0 | 0.0 | 0.00 | 0.00 | 0.00 | 73 | 1013.4 |
| 20260906043603 | 77 | 0 | 0.0 | 0.0 | 0.00 | 0.00 | 0.00 | 73 | 1013.4 |
| 20260906043403 | 76 | 0 | 0.0 | 0.0 | 0.00 | 0.00 | 0.00 | 73 | 1013.4 |
| 20260906043203 | 76 | 0 | 0.0 | 0.0 | 0.00 | 0.00 | 0.00 | 73 | 1013.3 |
| 20260906043004 | 76 | 0 | 0.0 | 0.0 | 0.00 | 0.00 | 0.00 | 73 | 1013.3 |
| 20260906042804 | 76 | 0 | 0.0 | 0.0 | 0.00 | 0.00 | 0.00 | 73 | 1013.3 |
| 20260906042604 | 76 | 0 | 0.0 | 0.0 | 0.00 | 0.00 | 0.00 | 74 | 1013.3 |
| 20260906042403 | 76 | 0 | 0.0 | 0.0 | 0.00 | 0.00 | 0.00 | 74 | 1013.3 |
| 20260906042203 | 76 | 0 | 0.0 | 0.0 | 0.00 | 0.00 | 0.00 | 74 | 1013.3 |
| 20260906042003 | 76 | 0 | 0.0 | 0.0 | 0.00 | 0.00 | 0.00 | 74 | 1013.3 |
| 20260906041803 | 76 | 0 | 0.0 | 0.0 | 0.00 | 0.00 | 0.00 | 74 | 1013.3 |
| 20260906041604 | 76 | 0 | 0.0 | 0.0 | 0.00 | 0.00 | 0.00 | 75 | 1013.3 |
| 20260906041404 | 76 | 0 | 0.0 | 0.0 | 0.00 | 0.00 | 0.00 | 75 | 1013.3 |
| 20260906041203 | 76 | 0 | 0.0 | 0.0 | 0.00 | 0.00 | 0.00 | 75 | 1013.3 |
| 20260906041003 | 76 | 0 | 0.0 | 0.0 | 0.00 | 0.00 | 0.00 | 75 | 1013.3 |
| 20260906040803 | 76 | 0 | 0.0 | 0.0 | 0.00 | 0.00 | 0.00 | 75 | 1013.3 |
| 20260906040603 | 76 | 0 | 0.0 | 0.0 | 0.00 | 0.00 | 0.00 | 75 | 1013.3 |
| 20260906040404 | 76 | 0 | 0.0 | 0.0 | 0.00 | 0.00 | 0.00 | 75 | 1013.3 |
| 20260906040204 | 76 | 0 | 0.0 | 0.0 | 0.00 | 0.00 | 0.00 | 74 | 1013.3 |
| 20260906040004 | 76 | 0 | 0.0 | 0.0 | 0.00 | 0.00 | 0.00 | 74 | 1013.3 |
| 20260906035803 | 76 | 0 | 0.0 | 0.0 | 0.00 | 0.00 | 0.00 | 74 | 1013.2 |
| 20260906035603 | 76 | 0 | 0.0 | 0.0 | 0.00 | 0.00 | 0.00 | 74 | 1013.2 |
| 20260906035403 | 76 | 0 | 0.0 | 0.0 | 0.00 | 0.00 | 0.00 | 74 | 1013.2 |
| 20260906035204 | 76 | 0 | 0.0 | 0.0 | 0.00 | 0.00 | 0.00 | 73 | 1013.2 |
| 20260906035004 | 76 | 0 | 0.0 | 0.0 | 0.00 | 0.00 | 0.00 | 73 | 1013.2 |
| 20260906034804 | 76 | 0 | 0.0 | 0.0 | 0.00 | 0.00 | 0.00 | 73 | 1013.2 |
| 20260906034603 | 76 | 0 | 0.0 | 0.0 | 0.00 | 0.00 | 0.00 | 73 | 1013.2 |
| 20260906034403 | 76 | 0 | 0.0 | 0.0 | 0.00 | 0.00 | 0.00 | 73 | 1013.3 |
| 20260906034203 | 76 | 0 | 0.0 | 0.0 | 0.00 | 0.00 | 0.00 | 72 | 1013.3 |
| 20260906034003 | 77 | 0 | 0.0 | 0.0 | 0.00 | 0.00 | 0.00 | 72 | 1013.3 |
| 20260906033804 | 77 | 0 | 0.0 | 0.0 | 0.00 | 0.00 | 0.00 | 72 | 1013.3 |
| 20260906033604 | 77 | 0 | 0.0 | 0.0 | 0.00 | 0.00 | 0.00 | 72 | 1013.3 |
| 20260906033404 | 77 | 0 | 0.0 | 0.0 | 0.00 | 0.00 | 0.00 | 72 | 1013.3 |
| 20260906033203 | 77 | 0 | 0.0 | 0.0 | 0.00 | 0.00 | 0.00 | 72 | 1013.3 |
| 20260906033003 | 77 | 0 | 0.0 | 0.0 | 0.00 | 0.00 | 0.00 | 72 | 1013.3 |
| 20260906032803 | 77 | 0 | 0.0 | 0.0 | 0.00 | 0.00 | 0.00 | 72 | 1013.3 |
| 20260906032603 | 77 | 0 | 0.0 | 0.0 | 0.00 | 0.00 | 0.00 | 71 | 1013.3 |
| 20260906032404 | 77 | 0 | 0.0 | 0.0 | 0.00 | 0.00 | 0.00 | 71 | 1013.3 |
| 20260906032204 | 77 | 0 | 0.0 | 0.0 | 0.00 | 0.00 | 0.00 | 71 | 1013.3 |
| 20260906032003 | 77 | 0 | 0.0 | 0.0 | 0.00 | 0.00 | 0.00 | 72 | 1013.3 |
| 20260906031803 | 77 | 0 | 0.0 | 0.0 | 0.00 | 0.00 | 0.00 | 71 | 1013.3 |
| 20260906031603 | 77 | 0 | 0.0 | 0.0 | 0.00 | 0.00 | 0.00 | 71 | 1013.3 |
| 20260906031403 | 77 | 0 | 0.0 | 0.0 | 0.00 | 0.00 | 0.00 | 71 | 1013.3 |
| 20260906031204 | 77 | 0 | 0.0 | 0.0 | 0.00 | 0.00 | 0.00 | 71 | 1013.4 |
| 20260906031004 | 77 | 0 | 0.0 | 0.0 | 0.00 | 0.00 | 0.00 | 71 | 1013.4 |
| 20260906030804 | 77 | 0 | 0.0 | 0.0 | 0.00 | 0.00 | 0.00 | 71 | 1013.4 |
| 20260906030603 | 76 | 0 | 0.0 | 0.0 | 0.00 | 0.00 | 0.00 | 72 | 1013.4 |
| 20260906030403 | 76 | 0 | 0.0 | 0.0 | 0.00 | 0.00 | 0.00 | 72 | 1013.3 |
| 20260906030203 | 76 | 0 | 0.0 | 0.0 | 0.00 | 0.00 | 0.00 | 72 | 1013.3 |
| 20260906030004 | 76 | 0 | 0.0 | 0.0 | 0.00 | 0.00 | 0.00 | 72 | 1013.3 |
| 20260906025804 | 76 | 0 | 0.0 | 0.0 | 0.00 | 0.00 | 0.00 | 73 | 1013.2 |
| 20260906025604 | 76 | 0 | 0.0 | 0.0 | 0.00 | 0.00 | 0.00 | 74 | 1013.2 |
| 20260906025403 | 76 | 0 | 0.0 | 0.0 | 0.00 | 0.00 | 0.00 | 74 | 1013.3 |
| 20260906025203 | 76 | 0 | 0.0 | 0.0 | 0.00 | 0.00 | 0.00 | 75 | 1013.3 |
| 20260906025003 | 76 | 0 | 0.0 | 0.0 | 0.00 | 0.00 | 0.00 | 76 | 1013.3 |
| 20260906024803 | 76 | 0 | 0.0 | 0.0 | 0.00 | 0.00 | 0.00 | 75 | 1013.2 |
| 20260906024603 | 76 | 0 | 0.0 | 0.0 | 0.00 | 0.00 | 0.00 | 76 | 1013.3 |
| 20260906024403 | 76 | 0 | 0.0 | 0.0 | 0.00 | 0.00 | 0.00 | 76 | 1013.3 |
| 20260906024203 | 76 | 0 | 0.0 | 0.0 | 0.00 | 0.00 | 0.00 | 76 | 1012.8 |
| 20260906024004 | 76 | 0 | 0.0 | 0.0 | 0.00 | 0.00 | 0.00 | 76 | 1012.8 |
| 20260906023804 | 76 | 0 | 0.0 | 0.0 | 0.00 | 0.00 | 0.00 | 75 | 1012.8 |
| 20260906023604 | 76 | 0 | 0.0 | 0.0 | 0.00 | 0.00 | 0.00 | 75 | 1012.7 |
| 20260906023403 | 76 | 0 | 0.0 | 0.0 | 0.00 | 0.00 | 0.00 | 75 | 1012.7 |
| 20260906023203 | 76 | 0 | 0.0 | 0.0 | 0.00 | 0.00 | 0.00 | 74 | 1012.7 |
| 20260906023003 | 76 | 0 | 0.0 | 0.0 | 0.00 | 0.00 | 0.00 | 74 | 1012.7 |
| 20260906022804 | 76 | 0 | 0.0 | 0.0 | 0.00 | 0.00 | 0.00 | 75 | 1012.5 |
| 20260906022604 | 76 | 0 | 0.0 | 0.0 | 0.00 | 0.00 | 0.00 | 75 | 1012.5 |
| 20260906022404 | 76 | 0 | 0.0 | 0.0 | 0.00 | 0.00 | 0.00 | 75 | 1012.5 |
| 20260906022203 | 76 | 0 | 0.0 | 0.0 | 0.00 | 0.00 | 0.00 | 75 | 1012.5 |
| 20260906022003 | 76 | 0 | 0.0 | 0.0 | 0.00 | 0.00 | 0.00 | 75 | 1012.5 |
| 20260906021803 | 76 | 0 | 0.0 | 0.0 | 0.00 | 0.00 | 0.00 | 75 | 1012.5 |
| 20260906021603 | 76 | 0 | 0.0 | 0.0 | 0.00 | 0.00 | 0.00 | 75 | 1012.5 |
| 20260906021404 | 76 | 0 | 0.0 | 0.0 | 0.00 | 0.00 | 0.00 | 75 | 1012.5 |
| 20260906021204 | 76 | 0 | 0.0 | 0.0 | 0.00 | 0.00 | 0.00 | 76 | 1012.6 |
| 20260906021004 | 76 | 0 | 0.0 | 0.0 | 0.00 | 0.00 | 0.00 | 75 | 1012.6 |
| 20260906020803 | 76 | 0 | 0.0 | 0.0 | 0.00 | 0.00 | 0.00 | 74 | 1012.6 |
| 20260906020603 | 76 | 0 | 0.0 | 0.0 | 0.00 | 0.00 | 0.00 | 75 | 1012.6 |
| 20260906020403 | 76 | 0 | 0.0 | 0.0 | 0.00 | 0.00 | 0.00 | 75 | 1012.6 |
| 20260906020203 | 76 | 0 | 0.0 | 0.0 | 0.00 | 0.00 | 0.00 | 76 | 1012.6 |
| 20260906020004 | 76 | 0 | 0.0 | 0.0 | 0.00 | 0.00 | 0.00 | 76 | 1012.6 |
| 20260906015804 | 76 | 0 | 0.0 | 0.0 | 0.00 | 0.00 | 0.00 | 76 | 1012.3 |
| 20260906015604 | 76 | 0 | 0.0 | 0.0 | 0.00 | 0.00 | 0.00 | 76 | 1012.3 |
| 20260906015403 | 76 | 0 | 0.0 | 0.0 | 0.00 | 0.00 | 0.00 | 75 | 1012.3 |
| 20260906015203 | 76 | 0 | 0.0 | 0.0 | 0.00 | 0.00 | 0.00 | 75 | 1012.3 |
| 20260906015004 | 76 | 0 | 0.0 | 0.0 | 0.00 | 0.00 | 0.00 | 74 | 1012.3 |
| 20260906014803 | 76 | 0 | 0.0 | 0.0 | 0.00 | 0.00 | 0.00 | 74 | 1012.3 |
| 20260906014604 | 76 | 0 | 0.0 | 0.0 | 0.00 | 0.00 | 0.00 | 74 | 1012.3 |
| 20260906014404 | 76 | 0 | 0.0 | 0.0 | 0.00 | 0.00 | 0.00 | 75 | 1012.3 |
| 20260906014204 | 76 | 0 | 0.0 | 0.0 | 0.00 | 0.00 | 0.00 | 75 | 1012.3 |
| 20260906014003 | 76 | 0 | 0.0 | 0.0 | 0.00 | 0.00 | 0.00 | 75 | 1012.3 |
| 20260906013803 | 76 | 0 | 0.0 | 0.0 | 0.00 | 0.00 | 0.00 | 75 | 1012.3 |
| 20260906013603 | 76 | 0 | 0.0 | 0.0 | 0.00 | 0.00 | 0.00 | 74 | 1012.3 |
| 20260906013403 | 76 | 0 | 0.0 | 0.0 | 0.00 | 0.00 | 0.00 | 75 | 1012.3 |
| 20260906013204 | 76 | 0 | 0.0 | 0.0 | 0.00 | 0.00 | 0.00 | 75 | 1012.3 |
| 20260906013004 | 76 | 0 | 0.0 | 0.0 | 0.00 | 0.00 | 0.00 | 75 | 1012.3 |
| 20260906012803 | 76 | 0 | 0.0 | 0.0 | 0.00 | 0.00 | 0.00 | 75 | 1012.1 |
| 20260906012603 | 76 | 0 | 0.0 | 0.0 | 0.00 | 0.00 | 0.00 | 77 | 1012.1 |
| 20260906012403 | 76 | 0 | 0.0 | 0.0 | 0.00 | 0.00 | 0.00 | 77 | 1012.1 |
| 20260906012203 | 76 | 0 | 0.0 | 0.0 | 0.00 | 0.00 | 0.00 | 77 | 1012.1 |
| 20260906012003 | 76 | 0 | 0.0 | 0.0 | 0.00 | 0.00 | 0.00 | 77 | 1012.1 |
| 20260906011803 | 76 | 0 | 0.0 | 0.0 | 0.00 | 0.00 | 0.00 | 78 | 1012.1 |
| 20260906011603 | 76 | 0 | 0.0 | 0.0 | 0.00 | 0.00 | 0.00 | 77 | 1012.1 |
| 20260906011404 | 76 | 0 | 0.0 | 0.0 | 0.00 | 0.00 | 0.00 | 77 | 1012.1 |
| 20260906011204 | 76 | 0 | 0.0 | 0.0 | 0.00 | 0.00 | 0.00 | 77 | 1012.0 |
| 20260906011004 | 76 | 0 | 0.0 | 0.0 | 0.00 | 0.00 | 0.00 | 77 | 1012.1 |
| 20260906010803 | 76 | 0 | 0.0 | 0.0 | 0.00 | 0.00 | 0.00 | 76 | 1012.0 |
| 20260906010603 | 76 | 0 | 0.0 | 0.0 | 0.00 | 0.00 | 0.00 | 76 | 1012.1 |
| 20260906010403 | 77 | 0 | 0.0 | 0.0 | 0.00 | 0.00 | 0.00 | 76 | 1012.2 |
| 20260906010203 | 77 | 0 | 0.0 | 0.0 | 0.00 | 0.00 | 0.00 | 76 | 1012.2 |
| 20260906010004 | 77 | 0 | 0.0 | 0.0 | 0.00 | 0.00 | 0.00 | 75 | 1012.2 |
| 20260906005804 | 77 | 358 | 0.0 | 0.9 | 0.00 | 0.00 | 0.00 | 75 | 1012.3 |
| 20260906005604 | 77 | 358 | 0.0 | 0.9 | 0.00 | 0.00 | 0.00 | 75 | 1012.3 |
| 20260906005403 | 78 | 358 | 0.0 | 0.9 | 0.00 | 0.00 | 0.00 | 74 | 1012.2 |
| 20260906005203 | 78 | 358 | 0.0 | 0.9 | 0.00 | 0.00 | 0.00 | 72 | 1012.2 |
| 20260906005003 | 78 | 358 | 0.0 | 0.9 | 0.00 | 0.00 | 0.00 | 72 | 1012.2 |
| 20260906004803 | 78 | 0 | 0.0 | 0.0 | 0.00 | 0.00 | 0.00 | 70 | 1012.2 |
| 20260906004604 | 78 | 0 | 0.0 | 0.0 | 0.00 | 0.00 | 0.00 | 69 | 1012.2 |
| 20260906004404 | 78 | 0 | 0.0 | 0.0 | 0.00 | 0.00 | 0.00 | 69 | 1012.2 |
| 20260906004204 | 78 | 0 | 0.0 | 0.0 | 0.00 | 0.00 | 0.00 | 69 | 1012.2 |
| 20260906004003 | 78 | 0 | 0.0 | 0.0 | 0.00 | 0.00 | 0.00 | 68 | 1012.3 |
| 20260906003803 | 78 | 0 | 0.0 | 0.0 | 0.00 | 0.00 | 0.00 | 69 | 1012.3 |
| 20260906003603 | 79 | 0 | 0.0 | 0.0 | 0.00 | 0.00 | 0.00 | 68 | 1012.3 |
| 20260906003403 | 79 | 0 | 0.0 | 0.0 | 0.00 | 0.00 | 0.00 | 68 | 1012.3 |
| 20260906003204 | 79 | 0 | 0.0 | 0.0 | 0.00 | 0.00 | 0.00 | 67 | 1012.3 |
| 20260906003004 | 79 | 0 | 0.0 | 0.0 | 0.00 | 0.00 | 0.00 | 67 | 1012.4 |
| 20260906002804 | 79 | 0 | 0.0 | 0.0 | 0.00 | 0.00 | 0.00 | 68 | 1012.1 |
| 20260906002603 | 79 | 0 | 0.0 | 0.0 | 0.00 | 0.00 | 0.00 | 67 | 1012.0 |
| 20260906002403 | 79 | 0 | 0.0 | 0.0 | 0.00 | 0.00 | 0.00 | 67 | 1012.1 |
| 20260906002203 | 79 | 0 | 0.0 | 0.0 | 0.00 | 0.00 | 0.00 | 68 | 1012.1 |
| 20260906002004 | 79 | 0 | 0.0 | 0.0 | 0.00 | 0.00 | 0.00 | 68 | 1012.1 |
| 20260906001804 | 80 | 0 | 0.0 | 0.0 | 0.00 | 0.00 | 0.00 | 68 | 1012.2 |
| 20260906001604 | 80 | 54 | 0.0 | 1.7 | 0.00 | 0.00 | 0.00 | 67 | 1012.2 |
| 20260906001403 | 80 | 54 | 0.0 | 1.7 | 0.00 | 0.00 | 0.00 | 68 | 1012.2 |
| 20260906001203 | 80 | 54 | 0.0 | 3.5 | 0.00 | 0.00 | 0.00 | 68 | 1012.2 |
| 20260906001003 | 80 | 54 | 0.9 | 4.3 | 0.00 | 0.00 | 0.00 | 67 | 1012.2 |
| 20260906000803 | 80 | 53 | 1.7 | 4.3 | 0.00 | 0.00 | 0.00 | 66 | 1012.2 |
| 20260906000603 | 80 | 52 | 1.7 | 4.3 | 0.00 | 0.00 | 0.00 | 65 | 1012.2 |
| 20260906000404 | 80 | 52 | 2.6 | 5.2 | 0.00 | 0.00 | 0.00 | 66 | 1012.2 |
| 20260906000204 | 80 | 52 | 3.5 | 5.2 | 0.00 | 0.00 | 0.00 | 66 | 1012.2 |
| 20260906000003 | 80 | 52 | 3.5 | 5.2 | 0.00 | 0.00 | 0.00 | 66 | 1012.2 |
| 20260905235803 | 80 | 53 | 3.5 | 5.2 | 0.00 | 0.00 | 0.00 | 65 | 1012.2 |
| 20260905235603 | 80 | 55 | 4.3 | 6.1 | 0.00 | 0.00 | 0.00 | 66 | 1012.2 |
| 20260905235403 | 80 | 57 | 4.3 | 6.1 | 0.00 | 0.00 | 0.00 | 66 | 1012.2 |
| 20260905235203 | 80 | 59 | 3.5 | 6.1 | 0.00 | 0.00 | 0.00 | 68 | 1012.2 |
| 20260905235004 | 80 | 60 | 3.5 | 6.1 | 0.00 | 0.00 | 0.00 | 69 | 1012.3 |
| 20260905234804 | 80 | 58 | 3.5 | 6.1 | 0.00 | 0.00 | 0.00 | 69 | 1012.2 |
| 20260905234604 | 79 | 57 | 3.5 | 6.1 | 0.00 | 0.00 | 0.00 | 69 | 1012.1 |
| 20260905234403 | 79 | 55 | 3.5 | 4.3 | 0.00 | 0.00 | 0.00 | 71 | 1012.2 |
| 20260905234203 | 79 | 56 | 3.5 | 4.3 | 0.00 | 0.00 | 0.00 | 73 | 1012.8 |
| 20260905234003 | 79 | 57 | 2.6 | 4.3 | 0.00 | 0.00 | 0.00 | 75 | 1012.8 |
| 20260905233803 | 79 | 60 | 1.7 | 4.3 | 0.00 | 0.00 | 0.00 | 74 | 1012.8 |
| 20260905233604 | 79 | 67 | 0.9 | 4.3 | 0.00 | 0.00 | 0.00 | 74 | 1012.8 |
| 20260905233404 | 79 | 77 | 0.9 | 4.3 | 0.00 | 0.00 | 0.00 | 74 | 1012.8 |
| 20260905233203 | 79 | 102 | 0.0 | 1.7 | 0.00 | 0.00 | 0.00 | 74 | 1012.8 |
| 20260905233003 | 79 | 102 | 0.0 | 1.7 | 0.00 | 0.00 | 0.00 | 73 | 1012.8 |
| 20260905232803 | 79 | 102 | 0.0 | 1.7 | 0.00 | 0.00 | 0.00 | 73 | 1012.0 |
| 20260905232603 | 79 | 102 | 0.0 | 0.9 | 0.00 | 0.00 | 0.00 | 73 | 1012.1 |
| 20260905232403 | 80 | 0 | 0.0 | 0.0 | 0.00 | 0.00 | 0.00 | 74 | 1012.1 |
| 20260905232204 | 80 | 0 | 0.0 | 0.0 | 0.00 | 0.00 | 0.00 | 74 | 1012.1 |
| 20260905232004 | 80 | 0 | 0.0 | 0.0 | 0.00 | 0.00 | 0.00 | 74 | 1012.1 |
| 20260905231804 | 80 | 0 | 0.0 | 0.0 | 0.00 | 0.00 | 0.00 | 74 | 1012.1 |
| 20260905231603 | 80 | 0 | 0.0 | 0.0 | 0.00 | 0.00 | 0.00 | 74 | 1012.1 |
| 20260905231403 | 80 | 0 | 0.0 | 0.0 | 0.00 | 0.00 | 0.00 | 74 | 1012.1 |
| 20260905231203 | 80 | 0 | 0.0 | 0.0 | 0.00 | 0.00 | 0.00 | 73 | 1012.2 |
| 20260905231003 | 80 | 0 | 0.0 | 0.0 | 0.00 | 0.00 | 0.00 | 73 | 1012.2 |
| 20260905230804 | 80 | 0 | 0.0 | 0.0 | 0.00 | 0.00 | 0.00 | 72 | 1012.2 |
| 20260905230604 | 80 | 0 | 0.0 | 0.0 | 0.00 | 0.00 | 0.00 | 72 | 1012.2 |
| 20260905230404 | 80 | 166 | 0.0 | 0.9 | 0.00 | 0.00 | 0.00 | 73 | 1012.2 |
| 20260905230203 | 80 | 166 | 0.0 | 0.9 | 0.00 | 0.00 | 0.00 | 72 | 1012.2 |
| 20260905230003 | 80 | 166 | 0.0 | 0.9 | 0.00 | 0.00 | 0.00 | 72 | 1012.2 |
| 20260905225803 | 80 | 166 | 0.0 | 0.9 | 0.00 | 0.00 | 0.00 | 72 | 1011.7 |
| 20260905225604 | 81 | 166 | 0.0 | 0.9 | 0.00 | 0.00 | 0.00 | 72 | 1011.7 |
| 20260905225404 | 81 | 166 | 0.0 | 3.5 | 0.00 | 0.00 | 0.00 | 72 | 1011.7 |
| 20260905225204 | 81 | 155 | 0.9 | 3.5 | 0.00 | 0.00 | 0.00 | 72 | 1011.7 |
| 20260905225003 | 81 | 155 | 0.9 | 3.5 | 0.00 | 0.00 | 0.00 | 71 | 1011.7 |
| 20260905224803 | 81 | 155 | 0.9 | 3.5 | 0.00 | 0.00 | 0.00 | 71 | 1011.7 |
| 20260905224603 | 81 | 155 | 0.9 | 3.5 | 0.00 | 0.00 | 0.00 | 71 | 1011.7 |
| 20260905224403 | 81 | 143 | 0.0 | 3.5 | 0.00 | 0.00 | 0.00 | 71 | 1011.7 |
| 20260905224203 | 81 | 59 | 0.0 | 3.5 | 0.00 | 0.00 | 0.00 | 68 | 1012.0 |
| 20260905224004 | 81 | 55 | 0.0 | 3.5 | 0.00 | 0.00 | 0.00 | 69 | 1012.0 |
| 20260905223804 | 81 | 49 | 0.9 | 3.5 | 0.00 | 0.00 | 0.00 | 68 | 1012.0 |
| 20260905223604 | 81 | 49 | 1.7 | 3.5 | 0.00 | 0.00 | 0.00 | 67 | 1012.0 |
| 20260905223403 | 81 | 48 | 1.7 | 3.5 | 0.00 | 0.00 | 0.00 | 67 | 1012.1 |
| 20260905223203 | 81 | 44 | 2.6 | 4.3 | 0.00 | 0.00 | 0.00 | 68 | 1012.1 |
| 20260905223003 | 81 | 43 | 2.6 | 4.3 | 0.00 | 0.00 | 0.00 | 67 | 1012.0 |
| 20260905222803 | 81 | 43 | 2.6 | 4.3 | 0.00 | 0.00 | 0.00 | 67 | 1012.2 |
| 20260905222604 | 81 | 42 | 2.6 | 4.3 | 0.00 | 0.00 | 0.00 | 68 | 1012.2 |
| 20260905222404 | 81 | 42 | 2.6 | 4.3 | 0.00 | 0.00 | 0.00 | 68 | 1012.3 |
| 20260905222204 | 82 | 44 | 2.6 | 4.3 | 0.00 | 0.00 | 0.00 | 68 | 1012.3 |
| 20260905222003 | 82 | 45 | 2.6 | 4.3 | 0.00 | 0.00 | 0.00 | 68 | 1012.3 |
| 20260905221803 | 82 | 46 | 1.7 | 3.5 | 0.00 | 0.00 | 0.00 | 67 | 1012.3 |
| 20260905221603 | 82 | 48 | 0.9 | 3.5 | 0.00 | 0.00 | 0.00 | 68 | 1012.3 |
| 20260905221403 | 82 | 50 | 0.9 | 3.5 | 0.00 | 0.00 | 0.00 | 68 | 1012.3 |
| 20260905221204 | 82 | 48 | 0.0 | 1.7 | 0.00 | 0.00 | 0.00 | 67 | 1012.2 |
| 20260905221004 | 82 | 48 | 0.0 | 0.9 | 0.00 | 0.00 | 0.00 | 67 | 1012.2 |
| 20260905220804 | 82 | 48 | 0.0 | 0.9 | 0.00 | 0.00 | 0.00 | 67 | 1012.2 |
| 20260905220603 | 82 | 0 | 0.0 | 0.0 | 0.00 | 0.00 | 0.00 | 66 | 1012.2 |
| 20260905220403 | 82 | 0 | 0.0 | 0.0 | 0.00 | 0.00 | 0.00 | 66 | 1012.2 |
| 20260905220203 | 82 | 49 | 0.0 | 2.6 | 0.00 | 0.00 | 0.00 | 66 | 1012.2 |
| 20260905220003 | 82 | 53 | 0.9 | 4.3 | 0.00 | 0.00 | 0.00 | 66 | 1012.2 |
| 20260905215804 | 82 | 51 | 1.7 | 5.2 | 0.00 | 0.00 | 0.00 | 65 | 1012.2 |
| 20260905215604 | 82 | 54 | 2.6 | 5.2 | 0.00 | 0.00 | 0.00 | 65 | 1012.2 |
| 20260905215404 | 82 | 53 | 2.6 | 5.2 | 0.00 | 0.00 | 0.00 | 65 | 1012.2 |
| 20260905215203 | 82 | 52 | 3.5 | 5.2 | 0.00 | 0.00 | 0.00 | 65 | 1012.2 |
| 20260905215003 | 82 | 50 | 3.5 | 5.2 | 0.00 | 0.00 | 0.00 | 64 | 1012.2 |
| 20260905214803 | 82 | 50 | 2.6 | 5.2 | 0.00 | 0.00 | 0.00 | 64 | 1012.2 |
| 20260905214603 | 83 | 47 | 2.6 | 5.2 | 0.00 | 0.00 | 0.00 | 64 | 1012.2 |
| 20260905214404 | 83 | 47 | 2.6 | 5.2 | 0.00 | 0.00 | 0.00 | 64 | 1012.2 |
| 20260905214204 | 83 | 48 | 2.6 | 4.3 | 0.00 | 0.00 | 0.00 | 64 | 1012.3 |
| 20260905214004 | 83 | 51 | 1.7 | 4.3 | 0.00 | 0.00 | 0.00 | 64 | 1012.3 |
| 20260905213803 | 83 | 53 | 2.6 | 7.0 | 0.00 | 0.00 | 0.00 | 63 | 1012.4 |
| 20260905213603 | 84 | 60 | 2.6 | 9.6 | 0.00 | 0.00 | 0.00 | 63 | 1012.4 |
| 20260905213403 | 84 | 73 | 2.6 | 9.6 | 0.00 | 0.00 | 0.00 | 63 | 1012.5 |
| 20260905213204 | 84 | 80 | 2.6 | 9.6 | 0.00 | 0.00 | 0.00 | 62 | 1012.4 |
| 20260905213004 | 84 | 89 | 2.6 | 9.6 | 0.00 | 0.00 | 0.00 | 62 | 1012.5 |
| 20260905212804 | 85 | 114 | 1.7 | 9.6 | 0.00 | 0.00 | 0.00 | 61 | 1012.7 |
| 20260905212604 | 85 | 174 | 0.9 | 7.0 | 0.00 | 0.00 | 0.00 | 62 | 1012.7 |
| 20260905212403 | 85 | 174 | 0.9 | 4.3 | 0.00 | 0.00 | 0.00 | 63 | 1012.7 |
| 20260905212203 | 85 | 173 | 0.9 | 4.3 | 0.00 | 0.00 | 0.00 | 65 | 1012.8 |
| 20260905212003 | 85 | 173 | 1.7 | 5.2 | 0.00 | 0.00 | 0.00 | 65 | 1012.8 |
| 20260905211803 | 85 | 173 | 1.7 | 5.2 | 0.00 | 0.00 | 0.00 | 65 | 1012.8 |
| 20260905211604 | 85 | 173 | 1.7 | 5.2 | 0.00 | 0.00 | 0.00 | 65 | 1012.8 |
| 20260905211404 | 85 | 173 | 1.7 | 5.2 | 0.00 | 0.00 | 0.00 | 65 | 1012.8 |
| 20260905211204 | 85 | 173 | 1.7 | 7.0 | 0.00 | 0.00 | 0.00 | 64 | 1012.9 |
| 20260905211003 | 85 | 173 | 2.6 | 9.6 | 0.00 | 0.00 | 0.00 | 64 | 1012.9 |
| 20260905210803 | 85 | 173 | 3.5 | 9.6 | 0.00 | 0.00 | 0.00 | 64 | 1012.9 |
| 20260905210603 | 85 | 173 | 3.5 | 9.6 | 0.00 | 0.00 | 0.00 | 64 | 1012.7 |
| 20260905210403 | 86 | 173 | 4.3 | 9.6 | 0.00 | 0.00 | 0.00 | 64 | 1012.8 |
| 20260905210203 | 86 | 173 | 4.3 | 9.6 | 0.00 | 0.00 | 0.00 | 63 | 1012.9 |
| 20260905210003 | 86 | 173 | 3.5 | 8.7 | 0.00 | 0.00 | 0.00 | 62 | 1012.8 |
| 20260905205804 | 86 | 173 | 2.6 | 7.8 | 0.00 | 0.00 | 0.00 | 61 | 1013.2 |
| 20260905205604 | 86 | 173 | 3.5 | 7.8 | 0.00 | 0.00 | 0.00 | 61 | 1013.1 |
| 20260905205404 | 85 | 173 | 2.6 | 7.8 | 0.00 | 0.00 | 0.00 | 61 | 1013.1 |
| 20260905205203 | 85 | 173 | 3.5 | 8.7 | 0.00 | 0.00 | 0.00 | 61 | 1013.1 |
| 20260905205003 | 85 | 173 | 3.5 | 8.7 | 0.00 | 0.00 | 0.00 | 61 | 1013.1 |
| 20260905204803 | 85 | 173 | 4.3 | 9.6 | 0.00 | 0.00 | 0.00 | 61 | 1013.1 |
| 20260905204604 | 85 | 173 | 4.3 | 9.6 | 0.00 | 0.00 | 0.00 | 61 | 1013.1 |
| 20260905204404 | 85 | 173 | 5.2 | 10.4 | 0.00 | 0.00 | 0.00 | 61 | 1013.1 |
| 20260905204204 | 85 | 173 | 5.2 | 10.4 | 0.00 | 0.00 | 0.00 | 62 | 1012.8 |
| 20260905204003 | 85 | 173 | 4.3 | 10.4 | 0.00 | 0.00 | 0.00 | 62 | 1012.8 |
| 20260905203803 | 86 | 173 | 3.5 | 10.4 | 0.00 | 0.00 | 0.00 | 62 | 1012.9 |
| 20260905203603 | 86 | 173 | 2.6 | 10.4 | 0.00 | 0.00 | 0.00 | 62 | 1012.9 |
| 20260905203403 | 86 | 173 | 1.7 | 7.0 | 0.00 | 0.00 | 0.00 | 61 | 1012.9 |
| 20260905203204 | 86 | 173 | 1.7 | 5.2 | 0.00 | 0.00 | 0.00 | 60 | 1012.8 |
| 20260905203004 | 85 | 173 | 1.7 | 5.2 | 0.00 | 0.00 | 0.00 | 62 | 1012.8 |
| 20260905202803 | 85 | 173 | 1.7 | 5.2 | 0.00 | 0.00 | 0.00 | 62 | 1013.4 |
| 20260905202603 | 85 | 173 | 1.7 | 5.2 | 0.00 | 0.00 | 0.00 | 62 | 1013.4 |
| 20260905202403 | 84 | 173 | 1.7 | 5.2 | 0.00 | 0.00 | 0.00 | 62 | 1013.3 |
| 20260905202203 | 84 | 173 | 1.7 | 5.2 | 0.00 | 0.00 | 0.00 | 63 | 1013.3 |
| 20260905202003 | 83 | 173 | 1.7 | 6.1 | 0.00 | 0.00 | 0.00 | 63 | 1013.3 |
| 20260905201803 | 83 | 173 | 1.7 | 6.1 | 0.00 | 0.00 | 0.00 | 65 | 1013.3 |
| 20260905201604 | 83 | 173 | 1.7 | 6.1 | 0.00 | 0.00 | 0.00 | 65 | 1013.3 |
| 20260905201404 | 83 | 173 | 2.6 | 6.1 | 0.00 | 0.00 | 0.00 | 66 | 1013.3 |
| 20260905201204 | 82 | 173 | 2.6 | 7.0 | 0.00 | 0.00 | 0.00 | 66 | 1012.8 |
| 20260905201003 | 82 | 173 | 3.5 | 7.0 | 0.00 | 0.00 | 0.00 | 67 | 1012.8 |
| 20260905200803 | 82 | 173 | 3.5 | 7.0 | 0.00 | 0.00 | 0.00 | 67 | 1012.8 |
| 20260905200603 | 82 | 173 | 3.5 | 8.7 | 0.00 | 0.00 | 0.00 | 67 | 1012.8 |
| 20260905200403 | 82 | 173 | 3.5 | 8.7 | 0.00 | 0.00 | 0.00 | 68 | 1012.8 |
| 20260905200203 | 82 | 173 | 3.5 | 8.7 | 0.00 | 0.00 | 0.00 | 68 | 1012.8 |
| 20260905200003 | 82 | 173 | 3.5 | 8.7 | 0.00 | 0.00 | 0.00 | 68 | 1012.8 |
| 20260905195804 | 82 | 173 | 2.6 | 8.7 | 0.00 | 0.00 | 0.00 | 68 | 1013.5 |
| 20260905195604 | 82 | 173 | 2.6 | 7.8 | 0.00 | 0.00 | 0.00 | 68 | 1013.5 |
| 20260905195403 | 82 | 175 | 3.5 | 8.7 | 0.00 | 0.00 | 0.00 | 68 | 1013.5 |
| 20260905195203 | 82 | 175 | 3.5 | 10.4 | 0.00 | 0.00 | 0.00 | 68 | 1013.5 |
| 20260905195004 | 82 | 174 | 4.3 | 12.2 | 0.00 | 0.00 | 0.00 | 68 | 1013.5 |
| 20260905194803 | 82 | 171 | 4.3 | 12.2 | 0.00 | 0.00 | 0.00 | 68 | 1013.5 |
| 20260905194603 | 82 | 168 | 5.2 | 16.5 | 0.00 | 0.00 | 0.00 | 68 | 1013.5 |
| 20260905194404 | 82 | 169 | 5.2 | 16.5 | 0.00 | 0.00 | 0.00 | 67 | 1013.5 |
| 20260905194204 | 82 | 171 | 5.2 | 16.5 | 0.00 | 0.00 | 0.00 | 68 | 1013.2 |
| 20260905194004 | 83 | 171 | 6.1 | 16.5 | 0.00 | 0.00 | 0.00 | 67 | 1013.3 |
| 20260905193803 | 83 | 169 | 7.0 | 16.5 | 0.00 | 0.00 | 0.00 | 67 | 1013.3 |
| 20260905193603 | 84 | 169 | 7.0 | 16.5 | 0.00 | 0.00 | 0.00 | 67 | 1013.4 |
| 20260905193403 | 84 | 166 | 7.0 | 16.5 | 0.00 | 0.00 | 0.00 | 66 | 1013.5 |
| 20260905193204 | 86 | 164 | 7.8 | 16.5 | 0.00 | 0.00 | 0.00 | 64 | 1013.5 |
| 20260905193004 | 87 | 165 | 7.0 | 16.5 | 0.00 | 0.00 | 0.00 | 61 | 1013.6 |
| 20260905192804 | 88 | 170 | 6.1 | 16.5 | 0.00 | 0.00 | 0.00 | 59 | 1013.2 |
| 20260905192603 | 90 | 174 | 5.2 | 15.6 | 0.00 | 0.00 | 0.00 | 58 | 1013.2 |
| 20260905192403 | 91 | 179 | 5.2 | 15.6 | 0.00 | 0.00 | 0.00 | 57 | 1013.3 |
| 20260905192203 | 91 | 182 | 4.3 | 9.6 | 0.00 | 0.00 | 0.00 | 57 | 1013.3 |
| 20260905192003 | 91 | 182 | 4.3 | 9.6 | 0.00 | 0.00 | 0.00 | 56 | 1013.3 |
| 20260905191803 | 91 | 182 | 4.3 | 9.6 | 0.00 | 0.00 | 0.00 | 56 | 1013.3 |
| 20260905191604 | 91 | 182 | 3.5 | 9.6 | 0.00 | 0.00 | 0.00 | 55 | 1013.3 |
| 20260905191404 | 92 | 182 | 3.5 | 7.0 | 0.00 | 0.00 | 0.00 | 56 | 1013.3 |
| 20260905191204 | 92 | 182 | 3.5 | 7.0 | 0.00 | 0.00 | 0.00 | 56 | 1013.3 |
| 20260905191003 | 92 | 182 | 3.5 | 7.0 | 0.00 | 0.00 | 0.00 | 56 | 1013.3 |
| 20260905190803 | 92 | 182 | 3.5 | 7.0 | 0.00 | 0.00 | 0.00 | 55 | 1013.3 |
| 20260905190603 | 92 | 182 | 2.6 | 7.0 | 0.00 | 0.00 | 0.00 | 56 | 1013.3 |
| 20260905190403 | 92 | 182 | 1.7 | 7.0 | 0.00 | 0.00 | 0.00 | 56 | 1013.3 |
| 20260905190203 | 92 | 182 | 1.7 | 6.1 | 0.00 | 0.00 | 0.00 | 54 | 1013.3 |
| 20260905190004 | 92 | 182 | 1.7 | 6.1 | 0.00 | 0.00 | 0.00 | 56 | 1013.3 |
| 20260905185804 | 91 | 182 | 1.7 | 6.1 | 0.00 | 0.00 | 0.00 | 57 | 1013.3 |
| 20260905185604 | 91 | 182 | 1.7 | 5.2 | 0.00 | 0.00 | 0.00 | 56 | 1013.3 |
| 20260905185403 | 91 | 182 | 1.7 | 5.2 | 0.00 | 0.00 | 0.00 | 57 | 1013.3 |
| 20260905185203 | 91 | 182 | 1.7 | 5.2 | 0.00 | 0.00 | 0.00 | 56 | 1013.3 |
| 20260905185003 | 91 | 182 | 1.7 | 5.2 | 0.00 | 0.00 | 0.00 | 56 | 1013.3 |
| 20260905184803 | 92 | 182 | 1.7 | 7.8 | 0.00 | 0.00 | 0.00 | 55 | 1013.3 |
| 20260905184603 | 92 | 182 | 1.7 | 7.8 | 0.00 | 0.00 | 0.00 | 55 | 1013.3 |
| 20260905184403 | 92 | 182 | 2.6 | 7.8 | 0.00 | 0.00 | 0.00 | 54 | 1013.3 |
| 20260905184204 | 92 | 182 | 2.6 | 7.8 | 0.00 | 0.00 | 0.00 | 54 | 1013.3 |
| 20260905184004 | 92 | 182 | 2.6 | 7.8 | 0.00 | 0.00 | 0.00 | 53 | 1013.3 |
| 20260905183803 | 92 | 182 | 2.6 | 7.0 | 0.00 | 0.00 | 0.00 | 55 | 1013.3 |
| 20260905183603 | 92 | 182 | 2.6 | 7.0 | 0.00 | 0.00 | 0.00 | 54 | 1013.3 |
| 20260905183403 | 92 | 182 | 2.6 | 7.0 | 0.00 | 0.00 | 0.00 | 55 | 1013.3 |
| 20260905183203 | 92 | 182 | 1.7 | 7.0 | 0.00 | 0.00 | 0.00 | 55 | 1013.3 |
| 20260905183003 | 92 | 182 | 2.6 | 7.0 | 0.00 | 0.00 | 0.00 | 54 | 1013.3 |
| 20260905182804 | 92 | 182 | 2.6 | 7.0 | 0.00 | 0.00 | 0.00 | 54 | 1013.5 |
| 20260905182604 | 92 | 182 | 1.7 | 6.1 | 0.00 | 0.00 | 0.00 | 54 | 1013.5 |
| 20260905182404 | 92 | 182 | 1.7 | 6.1 | 0.00 | 0.00 | 0.00 | 54 | 1013.5 |
| 20260905182203 | 92 | 182 | 2.6 | 7.8 | 0.00 | 0.00 | 0.00 | 53 | 1013.5 |
| 20260905182003 | 92 | 182 | 2.6 | 7.8 | 0.00 | 0.00 | 0.00 | 54 | 1013.5 |
| 20260905181803 | 92 | 182 | 2.6 | 7.8 | 0.00 | 0.00 | 0.00 | 55 | 1013.5 |
| 20260905181603 | 92 | 182 | 1.7 | 7.8 | 0.00 | 0.00 | 0.00 | 55 | 1013.5 |
| 20260905181404 | 91 | 182 | 1.7 | 7.8 | 0.00 | 0.00 | 0.00 | 55 | 1013.5 |
| 20260905181204 | 92 | 182 | 1.7 | 6.1 | 0.00 | 0.00 | 0.00 | 55 | 1013.8 |
| 20260905181004 | 92 | 182 | 1.7 | 6.1 | 0.00 | 0.00 | 0.00 | 55 | 1013.8 |
| 20260905180803 | 92 | 182 | 2.6 | 6.1 | 0.00 | 0.00 | 0.00 | 55 | 1013.8 |
| 20260905180603 | 92 | 182 | 2.6 | 6.1 | 0.00 | 0.00 | 0.00 | 54 | 1013.8 |
| 20260905180403 | 92 | 182 | 3.5 | 7.0 | 0.00 | 0.00 | 0.00 | 54 | 1013.7 |
| 20260905180204 | 92 | 182 | 3.5 | 7.8 | 0.00 | 0.00 | 0.00 | 53 | 1013.8 |
| 20260905180004 | 92 | 182 | 3.5 | 7.8 | 0.00 | 0.00 | 0.00 | 53 | 1013.8 |
| 20260905175804 | 92 | 182 | 2.6 | 7.8 | 0.00 | 0.00 | 0.00 | 54 | 1013.8 |
| 20260905175603 | 92 | 182 | 2.6 | 7.8 | 0.00 | 0.00 | 0.00 | 53 | 1013.8 |
| 20260905175404 | 92 | 182 | 2.6 | 7.8 | 0.00 | 0.00 | 0.00 | 53 | 1013.8 |
| 20260905175203 | 92 | 182 | 1.7 | 7.0 | 0.00 | 0.00 | 0.00 | 55 | 1013.8 |
| 20260905175003 | 92 | 182 | 1.7 | 7.0 | 0.00 | 0.00 | 0.00 | 55 | 1013.8 |
| 20260905174803 | 92 | 182 | 2.6 | 7.8 | 0.00 | 0.00 | 0.00 | 56 | 1013.8 |
| 20260905174604 | 91 | 182 | 2.6 | 7.8 | 0.00 | 0.00 | 0.00 | 56 | 1013.8 |
| 20260905174404 | 91 | 182 | 3.5 | 7.8 | 0.00 | 0.00 | 0.00 | 55 | 1013.8 |
| 20260905174204 | 91 | 182 | 3.5 | 7.8 | 0.00 | 0.00 | 0.00 | 55 | 1013.9 |
| 20260905174003 | 91 | 182 | 3.5 | 7.8 | 0.00 | 0.00 | 0.00 | 55 | 1013.9 |
| 20260905173803 | 91 | 182 | 3.5 | 6.1 | 0.00 | 0.00 | 0.00 | 57 | 1013.8 |
| 20260905173603 | 91 | 182 | 2.6 | 6.1 | 0.00 | 0.00 | 0.00 | 56 | 1013.8 |
| 20260905173403 | 91 | 182 | 2.6 | 6.1 | 0.00 | 0.00 | 0.00 | 57 | 1013.8 |
| 20260905173204 | 91 | 182 | 2.6 | 6.1 | 0.00 | 0.00 | 0.00 | 57 | 1013.8 |
| 20260905173004 | 91 | 182 | 1.7 | 6.1 | 0.00 | 0.00 | 0.00 | 57 | 1013.8 |
| 20260905172804 | 91 | 182 | 1.7 | 5.2 | 0.00 | 0.00 | 0.00 | 58 | 1014.2 |
| 20260905172603 | 91 | 182 | 2.6 | 7.0 | 0.00 | 0.00 | 0.00 | 57 | 1014.2 |
| 20260905172403 | 91 | 182 | 2.6 | 7.0 | 0.00 | 0.00 | 0.00 | 57 | 1014.2 |
| 20260905172203 | 91 | 182 | 3.5 | 7.0 | 0.00 | 0.00 | 0.00 | 57 | 1014.2 |
| 20260905172003 | 91 | 182 | 3.5 | 7.0 | 0.00 | 0.00 | 0.00 | 58 | 1014.2 |
| 20260905171803 | 91 | 182 | 3.5 | 7.8 | 0.00 | 0.00 | 0.00 | 57 | 1014.2 |
| 20260905171604 | 91 | 182 | 2.6 | 7.8 | 0.00 | 0.00 | 0.00 | 58 | 1014.2 |
| 20260905171404 | 90 | 182 | 2.6 | 7.8 | 0.00 | 0.00 | 0.00 | 59 | 1014.2 |
| 20260905171204 | 90 | 182 | 2.6 | 7.8 | 0.00 | 0.00 | 0.00 | 58 | 1014.3 |
| 20260905171003 | 90 | 182 | 2.6 | 7.8 | 0.00 | 0.00 | 0.00 | 58 | 1014.3 |
| 20260905170803 | 90 | 182 | 2.6 | 7.0 | 0.00 | 0.00 | 0.00 | 58 | 1014.4 |
| 20260905170603 | 90 | 182 | 2.6 | 7.0 | 0.00 | 0.00 | 0.00 | 57 | 1014.4 |
| 20260905170404 | 90 | 182 | 3.5 | 7.8 | 0.00 | 0.00 | 0.00 | 57 | 1014.4 |
| 20260905170204 | 91 | 182 | 3.5 | 7.8 | 0.00 | 0.00 | 0.00 | 58 | 1014.3 |
| 20260905170004 | 91 | 182 | 3.5 | 8.7 | 0.00 | 0.00 | 0.00 | 58 | 1014.4 |
| 20260905165803 | 91 | 182 | 3.5 | 8.7 | 0.00 | 0.00 | 0.00 | 57 | 1014.3 |
| 20260905165603 | 91 | 182 | 3.5 | 8.7 | 0.00 | 0.00 | 0.00 | 57 | 1014.3 |
| 20260905165403 | 92 | 182 | 3.5 | 8.7 | 0.00 | 0.00 | 0.00 | 56 | 1014.5 |
| 20260905165203 | 92 | 182 | 3.5 | 8.7 | 0.00 | 0.00 | 0.00 | 57 | 1014.5 |
| 20260905165003 | 92 | 182 | 2.6 | 7.0 | 0.00 | 0.00 | 0.00 | 58 | 1014.3 |
| 20260905164804 | 91 | 182 | 2.6 | 7.0 | 0.00 | 0.00 | 0.00 | 58 | 1014.3 |
| 20260905164604 | 91 | 182 | 2.6 | 7.0 | 0.00 | 0.00 | 0.00 | 58 | 1014.3 |
| 20260905164404 | 91 | 182 | 1.7 | 7.0 | 0.00 | 0.00 | 0.00 | 59 | 1014.3 |
| 20260905164203 | 90 | 182 | 1.7 | 7.0 | 0.00 | 0.00 | 0.00 | 59 | 1014.6 |
| 20260905164003 | 90 | 182 | 1.7 | 7.0 | 0.00 | 0.00 | 0.00 | 60 | 1014.6 |
| 20260905163803 | 90 | 182 | 1.7 | 6.1 | 0.00 | 0.00 | 0.00 | 59 | 1014.6 |
| 20260905163604 | 90 | 182 | 0.9 | 4.3 | 0.00 | 0.00 | 0.00 | 60 | 1014.6 |
| 20260905163404 | 90 | 182 | 0.9 | 4.3 | 0.00 | 0.00 | 0.00 | 60 | 1014.6 |
| 20260905163204 | 90 | 182 | 0.9 | 4.3 | 0.00 | 0.00 | 0.00 | 61 | 1014.6 |
| 20260905163003 | 90 | 182 | 1.7 | 4.3 | 0.00 | 0.00 | 0.00 | 61 | 1014.6 |
| 20260905162803 | 89 | 182 | 1.7 | 5.2 | 0.00 | 0.00 | 0.00 | 61 | 1014.8 |
| 20260905162603 | 89 | 182 | 2.6 | 6.1 | 0.00 | 0.00 | 0.00 | 62 | 1014.8 |
| 20260905162403 | 89 | 182 | 2.6 | 6.1 | 0.00 | 0.00 | 0.00 | 61 | 1014.8 |
| 20260905162203 | 89 | 182 | 1.7 | 6.1 | 0.00 | 0.00 | 0.00 | 62 | 1014.8 |
| 20260905162004 | 89 | 182 | 2.6 | 6.1 | 0.00 | 0.00 | 0.00 | 61 | 1014.8 |
| 20260905161804 | 89 | 182 | 1.7 | 6.1 | 0.00 | 0.00 | 0.00 | 60 | 1014.8 |
| 20260905161604 | 90 | 182 | 1.7 | 6.1 | 0.00 | 0.00 | 0.00 | 61 | 1014.8 |
| 20260905161403 | 90 | 182 | 1.7 | 6.1 | 0.00 | 0.00 | 0.00 | 61 | 1014.8 |
| 20260905161203 | 90 | 182 | 2.6 | 7.0 | 0.00 | 0.00 | 0.00 | 61 | 1014.7 |
| 20260905161003 | 90 | 182 | 2.6 | 7.0 | 0.00 | 0.00 | 0.00 | 61 | 1014.7 |
| 20260905160804 | 90 | 182 | 2.6 | 7.0 | 0.00 | 0.00 | 0.00 | 60 | 1014.7 |
| 20260905160604 | 90 | 182 | 3.5 | 7.0 | 0.00 | 0.00 | 0.00 | 59 | 1014.7 |
| 20260905160404 | 90 | 182 | 2.6 | 7.0 | 0.00 | 0.00 | 0.00 | 59 | 1014.8 |
| 20260905160203 | 91 | 182 | 2.6 | 7.0 | 0.00 | 0.00 | 0.00 | 59 | 1014.8 |
| 20260905160003 | 91 | 182 | 1.7 | 7.0 | 0.00 | 0.00 | 0.00 | 60 | 1014.8 |
| 20260905155803 | 91 | 182 | 1.7 | 7.0 | 0.00 | 0.00 | 0.00 | 58 | 1015.0 |
| 20260905155603 | 91 | 182 | 1.7 | 7.0 | 0.00 | 0.00 | 0.00 | 59 | 1015.0 |
| 20260905155404 | 91 | 182 | 1.7 | 5.2 | 0.00 | 0.00 | 0.00 | 61 | 1015.0 |
| 20260905155204 | 90 | 182 | 1.7 | 5.2 | 0.00 | 0.00 | 0.00 | 60 | 1014.9 |
| 20260905155004 | 90 | 182 | 1.7 | 5.2 | 0.00 | 0.00 | 0.00 | 61 | 1014.9 |
| 20260905154803 | 90 | 182 | 1.7 | 5.2 | 0.00 | 0.00 | 0.00 | 63 | 1014.9 |
| 20260905154603 | 90 | 182 | 1.7 | 5.2 | 0.00 | 0.00 | 0.00 | 62 | 1014.9 |
| 20260905154403 | 90 | 182 | 2.6 | 5.2 | 0.00 | 0.00 | 0.00 | 64 | 1014.9 |
| 20260905154203 | 90 | 182 | 2.6 | 7.8 | 0.00 | 0.00 | 0.00 | 63 | 1014.8 |
| 20260905154003 | 90 | 182 | 2.6 | 7.8 | 0.00 | 0.00 | 0.00 | 62 | 1014.8 |
| 20260905153804 | 90 | 182 | 2.6 | 7.8 | 0.00 | 0.00 | 0.00 | 62 | 1014.8 |
| 20260905153604 | 90 | 182 | 2.6 | 7.8 | 0.00 | 0.00 | 0.00 | 63 | 1014.8 |
| 20260905153403 | 90 | 182 | 2.6 | 7.8 | 0.00 | 0.00 | 0.00 | 61 | 1014.8 |
| 20260905153203 | 90 | 182 | 1.7 | 6.1 | 0.00 | 0.00 | 0.00 | 63 | 1014.9 |
| 20260905153003 | 89 | 182 | 1.7 | 6.1 | 0.00 | 0.00 | 0.00 | 62 | 1014.8 |
| 20260905152803 | 89 | 182 | 1.7 | 6.1 | 0.00 | 0.00 | 0.00 | 63 | 1015.1 |
| 20260905152603 | 89 | 182 | 1.7 | 6.1 | 0.00 | 0.00 | 0.00 | 64 | 1015.2 |
| 20260905152404 | 89 | 182 | 1.7 | 6.1 | 0.00 | 0.00 | 0.00 | 65 | 1015.1 |
| 20260905152204 | 88 | 182 | 1.7 | 6.1 | 0.00 | 0.00 | 0.00 | 65 | 1015.0 |
| 20260905152004 | 88 | 182 | 1.7 | 6.1 | 0.00 | 0.00 | 0.00 | 65 | 1015.0 |
| 20260905151803 | 88 | 182 | 1.7 | 6.1 | 0.00 | 0.00 | 0.00 | 66 | 1015.0 |
| 20260905151603 | 88 | 182 | 2.6 | 6.1 | 0.00 | 0.00 | 0.00 | 66 | 1015.0 |
| 20260905151403 | 88 | 182 | 2.6 | 6.1 | 0.00 | 0.00 | 0.00 | 66 | 1015.0 |
| 20260905151203 | 88 | 182 | 1.7 | 6.1 | 0.00 | 0.00 | 0.00 | 65 | 1015.1 |
| 20260905151003 | 88 | 182 | 1.7 | 6.1 | 0.00 | 0.00 | 0.00 | 65 | 1015.1 |
| 20260905150804 | 88 | 182 | 1.7 | 6.1 | 0.00 | 0.00 | 0.00 | 65 | 1015.1 |
| 20260905150604 | 87 | 182 | 1.7 | 7.0 | 0.00 | 0.00 | 0.00 | 67 | 1015.1 |
| 20260905150404 | 87 | 182 | 2.6 | 7.0 | 0.00 | 0.00 | 0.00 | 67 | 1015.1 |
| 20260905150203 | 87 | 182 | 2.6 | 7.0 | 0.00 | 0.00 | 0.00 | 65 | 1015.1 |
| 20260905150003 | 87 | 182 | 3.5 | 7.0 | 0.00 | 0.00 | 0.00 | 69 | 1015.1 |
| 20260905145803 | 87 | 182 | 2.6 | 7.0 | 0.00 | 0.00 | 0.00 | 68 | 1015.3 |
| 20260905145603 | 87 | 182 | 3.5 | 6.1 | 0.00 | 0.00 | 0.00 | 69 | 1015.2 |
| 20260905145404 | 86 | 182 | 2.6 | 6.1 | 0.00 | 0.00 | 0.00 | 70 | 1015.2 |
| 20260905145204 | 86 | 182 | 2.6 | 6.1 | 0.00 | 0.00 | 0.00 | 70 | 1015.1 |
| 20260905145004 | 86 | 182 | 1.7 | 5.2 | 0.00 | 0.00 | 0.00 | 69 | 1015.1 |
| 20260905144803 | 86 | 182 | 1.7 | 5.2 | 0.00 | 0.00 | 0.00 | 70 | 1015.2 |
| 20260905144603 | 86 | 182 | 1.7 | 6.1 | 0.00 | 0.00 | 0.00 | 71 | 1015.2 |
| 20260905144403 | 86 | 182 | 1.7 | 6.1 | 0.00 | 0.00 | 0.00 | 71 | 1015.1 |
| 20260905144203 | 86 | 182 | 1.7 | 6.1 | 0.00 | 0.00 | 0.00 | 72 | 1015.3 |
| 20260905144003 | 86 | 182 | 2.6 | 7.8 | 0.00 | 0.00 | 0.00 | 74 | 1015.3 |
| 20260905143804 | 85 | 182 | 3.5 | 7.8 | 0.00 | 0.00 | 0.00 | 74 | 1015.3 |
| 20260905143604 | 85 | 182 | 3.5 | 7.8 | 0.00 | 0.00 | 0.00 | 75 | 1015.3 |
| 20260905143404 | 85 | 182 | 3.5 | 7.8 | 0.00 | 0.00 | 0.00 | 75 | 1015.3 |
| 20260905143203 | 85 | 182 | 3.5 | 7.8 | 0.00 | 0.00 | 0.00 | 73 | 1015.3 |
| 20260905143003 | 86 | 182 | 2.6 | 6.1 | 0.00 | 0.00 | 0.00 | 73 | 1015.3 |
| 20260905142803 | 86 | 182 | 2.6 | 6.1 | 0.00 | 0.00 | 0.00 | 72 | 1015.4 |
| 20260905142603 | 86 | 182 | 1.7 | 5.2 | 0.00 | 0.00 | 0.00 | 72 | 1015.5 |
| 20260905142404 | 87 | 182 | 0.9 | 4.3 | 0.00 | 0.00 | 0.00 | 72 | 1015.5 |
| 20260905142204 | 87 | 182 | 0.9 | 3.5 | 0.00 | 0.00 | 0.00 | 71 | 1015.3 |
| 20260905142004 | 87 | 182 | 0.9 | 1.7 | 0.00 | 0.00 | 0.00 | 68 | 1015.3 |
| 20260905141803 | 87 | 182 | 0.9 | 4.3 | 0.00 | 0.00 | 0.00 | 67 | 1015.3 |
| 20260905141603 | 87 | 182 | 0.9 | 4.3 | 0.00 | 0.00 | 0.00 | 67 | 1015.3 |
| 20260905141403 | 87 | 182 | 0.9 | 4.3 | 0.00 | 0.00 | 0.00 | 68 | 1015.3 |
| 20260905141203 | 87 | 182 | 0.9 | 4.3 | 0.00 | 0.00 | 0.00 | 68 | 1015.2 |
| 20260905141003 | 87 | 182 | 0.9 | 4.3 | 0.00 | 0.00 | 0.00 | 68 | 1015.2 |
| 20260905140803 | 87 | 182 | 0.9 | 2.6 | 0.00 | 0.00 | 0.00 | 68 | 1015.2 |
| 20260905140604 | 87 | 182 | 0.9 | 2.6 | 0.00 | 0.00 | 0.00 | 68 | 1015.2 |
| 20260905140404 | 86 | 182 | 0.0 | 1.7 | 0.00 | 0.00 | 0.00 | 71 | 1015.2 |
| 20260905140203 | 86 | 182 | 0.0 | 1.7 | 0.00 | 0.00 | 0.00 | 69 | 1015.2 |
| 20260905140004 | 86 | 182 | 0.9 | 3.5 | 0.00 | 0.00 | 0.00 | 70 | 1015.2 |
| 20260905135803 | 86 | 182 | 0.9 | 3.5 | 0.00 | 0.00 | 0.00 | 70 | 1015.4 |
| 20260905135603 | 86 | 182 | 0.9 | 3.5 | 0.00 | 0.00 | 0.00 | 73 | 1015.4 |
| 20260905135403 | 86 | 182 | 0.9 | 3.5 | 0.00 | 0.00 | 0.00 | 71 | 1015.4 |
| 20260905135204 | 86 | 182 | 0.9 | 4.3 | 0.00 | 0.00 | 0.00 | 72 | 1015.4 |
| 20260905135004 | 86 | 182 | 0.9 | 4.3 | 0.00 | 0.00 | 0.00 | 72 | 1015.4 |
| 20260905134804 | 86 | 182 | 0.9 | 4.3 | 0.00 | 0.00 | 0.00 | 72 | 1015.4 |
| 20260905134603 | 86 | 182 | 0.9 | 4.3 | 0.00 | 0.00 | 0.00 | 72 | 1015.4 |
| 20260905134403 | 86 | 182 | 0.9 | 4.3 | 0.00 | 0.00 | 0.00 | 73 | 1015.3 |
| 20260905134203 | 86 | 182 | 0.9 | 3.5 | 0.00 | 0.00 | 0.00 | 71 | 1015.6 |
| 20260905134003 | 86 | 182 | 0.9 | 3.5 | 0.00 | 0.00 | 0.00 | 71 | 1015.6 |
| 20260905133803 | 86 | 182 | 0.9 | 3.5 | 0.00 | 0.00 | 0.00 | 71 | 1015.6 |
| 20260905133603 | 86 | 182 | 0.0 | 3.5 | 0.00 | 0.00 | 0.00 | 72 | 1015.6 |
| 20260905133404 | 86 | 182 | 0.0 | 3.5 | 0.00 | 0.00 | 0.00 | 73 | 1015.6 |
| 20260905133204 | 85 | 182 | 0.0 | 1.7 | 0.00 | 0.00 | 0.00 | 73 | 1015.5 |
| 20260905133004 | 85 | 0 | 0.0 | 0.0 | 0.00 | 0.00 | 0.00 | 69 | 1015.5 |
| 20260905132803 | 85 | 0 | 0.0 | 0.0 | 0.00 | 0.00 | 0.00 | 69 | 1015.5 |
| 20260905132603 | 85 | 182 | 0.0 | 0.9 | 0.00 | 0.00 | 0.00 | 69 | 1015.5 |
| 20260905132403 | 85 | 182 | 0.0 | 1.7 | 0.00 | 0.00 | 0.00 | 71 | 1015.5 |
| 20260905132203 | 84 | 182 | 0.0 | 2.6 | 0.00 | 0.00 | 0.00 | 70 | 1015.5 |
| 20260905132003 | 84 | 182 | 0.0 | 2.6 | 0.00 | 0.00 | 0.00 | 72 | 1015.4 |
| 20260905131803 | 84 | 182 | 0.0 | 2.6 | 0.00 | 0.00 | 0.00 | 71 | 1015.5 |
| 20260905131604 | 84 | 182 | 0.9 | 2.6 | 0.00 | 0.00 | 0.00 | 71 | 1015.5 |
| 20260905131404 | 84 | 182 | 0.9 | 2.6 | 0.00 | 0.00 | 0.00 | 71 | 1015.5 |
| 20260905131204 | 83 | 182 | 0.9 | 2.6 | 0.00 | 0.00 | 0.00 | 71 | 1015.6 |
| 20260905131003 | 83 | 182 | 0.9 | 2.6 | 0.00 | 0.00 | 0.00 | 72 | 1015.6 |
| 20260905130803 | 83 | 182 | 0.9 | 2.6 | 0.00 | 0.00 | 0.00 | 72 | 1015.6 |
| 20260905130603 | 83 | 182 | 0.9 | 2.6 | 0.00 | 0.00 | 0.00 | 72 | 1015.6 |
| 20260905130403 | 83 | 182 | 0.9 | 1.7 | 0.00 | 0.00 | 0.00 | 72 | 1015.6 |
| 20260905130203 | 83 | 182 | 0.9 | 1.7 | 0.00 | 0.00 | 0.00 | 74 | 1015.6 |
| 20260905130004 | 82 | 182 | 0.9 | 1.7 | 0.00 | 0.00 | 0.00 | 73 | 1015.5 |
| 20260905125804 | 82 | 182 | 0.9 | 2.6 | 0.00 | 0.00 | 0.00 | 74 | 1015.5 |
| 20260905125603 | 82 | 182 | 0.9 | 2.6 | 0.00 | 0.00 | 0.00 | 74 | 1015.5 |
| 20260905125403 | 82 | 182 | 0.9 | 2.6 | 0.00 | 0.00 | 0.00 | 74 | 1015.5 |
| 20260905125203 | 82 | 182 | 0.9 | 2.6 | 0.00 | 0.00 | 0.00 | 74 | 1015.5 |
| 20260905125003 | 82 | 182 | 0.9 | 3.5 | 0.00 | 0.00 | 0.00 | 75 | 1015.5 |
| 20260905124803 | 82 | 182 | 0.9 | 3.5 | 0.00 | 0.00 | 0.00 | 75 | 1015.5 |
| 20260905124604 | 81 | 182 | 0.9 | 3.5 | 0.00 | 0.00 | 0.00 | 76 | 1015.5 |
| 20260905124404 | 81 | 182 | 0.9 | 3.5 | 0.00 | 0.00 | 0.00 | 76 | 1015.5 |
| 20260905124203 | 81 | 182 | 0.9 | 4.3 | 0.00 | 0.00 | 0.00 | 76 | 1015.5 |
| 20260905124003 | 81 | 182 | 1.7 | 4.3 | 0.00 | 0.00 | 0.00 | 76 | 1015.5 |
| 20260905123803 | 81 | 182 | 0.9 | 4.3 | 0.00 | 0.00 | 0.00 | 76 | 1015.5 |
| 20260905123603 | 81 | 182 | 0.9 | 4.3 | 0.00 | 0.00 | 0.00 | 76 | 1015.5 |
| 20260905123403 | 81 | 182 | 0.9 | 4.3 | 0.00 | 0.00 | 0.00 | 77 | 1015.5 |
| 20260905123203 | 80 | 182 | 0.9 | 3.5 | 0.00 | 0.00 | 0.00 | 77 | 1015.5 |
| 20260905123004 | 80 | 182 | 0.9 | 3.5 | 0.00 | 0.00 | 0.00 | 77 | 1015.4 |
| 20260905122804 | 80 | 182 | 0.9 | 3.5 | 0.00 | 0.00 | 0.00 | 77 | 1015.3 |
| 20260905122604 | 80 | 182 | 1.7 | 3.5 | 0.00 | 0.00 | 0.00 | 77 | 1015.4 |
| 20260905122403 | 80 | 182 | 1.7 | 3.5 | 0.00 | 0.00 | 0.00 | 78 | 1015.4 |
| 20260905122203 | 80 | 182 | 0.9 | 3.5 | 0.00 | 0.00 | 0.00 | 78 | 1015.4 |
| 20260905122003 | 80 | 182 | 1.7 | 4.3 | 0.00 | 0.00 | 0.00 | 79 | 1015.3 |
| 20260905121803 | 80 | 182 | 1.7 | 4.3 | 0.00 | 0.00 | 0.00 | 78 | 1015.4 |
| 20260905121603 | 79 | 182 | 1.7 | 4.3 | 0.00 | 0.00 | 0.00 | 79 | 1015.2 |
| 20260905121404 | 79 | 182 | 1.7 | 4.3 | 0.00 | 0.00 | 0.00 | 79 | 1015.2 |
| 20260905121204 | 79 | 182 | 1.7 | 5.2 | 0.00 | 0.00 | 0.00 | 79 | 1015.0 |
| 20260905121004 | 79 | 182 | 1.7 | 5.2 | 0.00 | 0.00 | 0.00 | 79 | 1015.0 |